<?xml version="1.0" encoding="UTF-8" standalone="no" ?>
<gpx xmlns="http://www.topografix.com/GPX/1/1" xmlns:xsi="http://www.w3.org/2001/XMLSchema-instance" xsi:schemaLocation="http://www.topografix.com/GPX/1/1 http://www.topografix.com/GPX/1/1/gpx.xsd" version="1.1" creator="VisuGPX - https://www.visugpx.com">
  <metadata>
    <name>Joyeux Randonneurs à Faye</name>
    <desc><![CDATA[Toutes les randonnées proposées sont accessible à tous. Il existe pratiquement toujours des possibilités  pour raccourcir le circuit à environ  6km.]]></desc>
  </metadata>
  <trk>
    <name><![CDATA[Tracé 15 sept. 2015 14:05:22 FAYE
]]></name>
    <trkseg>
      <trkpt lat="45.25222" lon="0.3224">
        <ele>93</ele>
        <time>2015-09-15T12:05:22Z</time>
      </trkpt>
      <trkpt lat="45.25216" lon="0.32232">
        <ele>95</ele>
        <time>2015-09-15T12:06:18Z</time>
      </trkpt>
      <trkpt lat="45.25209" lon="0.32229">
        <ele>95</ele>
        <time>2015-09-15T12:06:26Z</time>
      </trkpt>
      <trkpt lat="45.25203" lon="0.3223">
        <ele>95</ele>
        <time>2015-09-15T12:06:31Z</time>
      </trkpt>
      <trkpt lat="45.25192" lon="0.32232">
        <ele>92</ele>
        <time>2015-09-15T12:06:36Z</time>
      </trkpt>
      <trkpt lat="45.25186" lon="0.3224">
        <ele>93</ele>
        <time>2015-09-15T12:06:44Z</time>
      </trkpt>
      <trkpt lat="45.25182" lon="0.32251">
        <ele>93</ele>
        <time>2015-09-15T12:06:53Z</time>
      </trkpt>
      <trkpt lat="45.25179" lon="0.32262">
        <ele>94</ele>
        <time>2015-09-15T12:07:02Z</time>
      </trkpt>
      <trkpt lat="45.25176" lon="0.32273">
        <ele>93</ele>
        <time>2015-09-15T12:07:10Z</time>
      </trkpt>
      <trkpt lat="45.25176" lon="0.32286">
        <ele>93</ele>
        <time>2015-09-15T12:07:17Z</time>
      </trkpt>
      <trkpt lat="45.25179" lon="0.32296">
        <ele>92</ele>
        <time>2015-09-15T12:07:24Z</time>
      </trkpt>
      <trkpt lat="45.25184" lon="0.32302">
        <ele>92</ele>
        <time>2015-09-15T12:07:29Z</time>
      </trkpt>
      <trkpt lat="45.25187" lon="0.32312">
        <ele>89</ele>
        <time>2015-09-15T12:07:38Z</time>
      </trkpt>
      <trkpt lat="45.2519" lon="0.32322">
        <ele>87</ele>
        <time>2015-09-15T12:07:44Z</time>
      </trkpt>
      <trkpt lat="45.25195" lon="0.32334">
        <ele>86</ele>
        <time>2015-09-15T12:07:52Z</time>
      </trkpt>
      <trkpt lat="45.25199" lon="0.32343">
        <ele>87</ele>
        <time>2015-09-15T12:08:00Z</time>
      </trkpt>
      <trkpt lat="45.25205" lon="0.32353">
        <ele>87</ele>
        <time>2015-09-15T12:08:09Z</time>
      </trkpt>
      <trkpt lat="45.2521" lon="0.32363">
        <ele>87</ele>
        <time>2015-09-15T12:08:17Z</time>
      </trkpt>
      <trkpt lat="45.25215" lon="0.32372">
        <ele>88</ele>
        <time>2015-09-15T12:08:24Z</time>
      </trkpt>
      <trkpt lat="45.25221" lon="0.32382">
        <ele>86</ele>
        <time>2015-09-15T12:08:31Z</time>
      </trkpt>
      <trkpt lat="45.25225" lon="0.32392">
        <ele>88</ele>
        <time>2015-09-15T12:08:40Z</time>
      </trkpt>
      <trkpt lat="45.25232" lon="0.32396">
        <ele>86</ele>
        <time>2015-09-15T12:08:45Z</time>
      </trkpt>
      <trkpt lat="45.25241" lon="0.32397">
        <ele>83</ele>
        <time>2015-09-15T12:08:50Z</time>
      </trkpt>
      <trkpt lat="45.25249" lon="0.32396">
        <ele>81</ele>
        <time>2015-09-15T12:08:55Z</time>
      </trkpt>
      <trkpt lat="45.25257" lon="0.32393">
        <ele>80</ele>
        <time>2015-09-15T12:09:01Z</time>
      </trkpt>
      <trkpt lat="45.25265" lon="0.32389">
        <ele>78</ele>
        <time>2015-09-15T12:09:12Z</time>
      </trkpt>
      <trkpt lat="45.25273" lon="0.32387">
        <ele>80</ele>
        <time>2015-09-15T12:09:19Z</time>
      </trkpt>
      <trkpt lat="45.25279" lon="0.3238">
        <ele>80</ele>
        <time>2015-09-15T12:09:25Z</time>
      </trkpt>
      <trkpt lat="45.25286" lon="0.32376">
        <ele>82</ele>
        <time>2015-09-15T12:09:31Z</time>
      </trkpt>
      <trkpt lat="45.25294" lon="0.3237">
        <ele>80</ele>
        <time>2015-09-15T12:09:39Z</time>
      </trkpt>
      <trkpt lat="45.25301" lon="0.32363">
        <ele>81</ele>
        <time>2015-09-15T12:09:47Z</time>
      </trkpt>
      <trkpt lat="45.25308" lon="0.32356">
        <ele>81</ele>
        <time>2015-09-15T12:09:54Z</time>
      </trkpt>
      <trkpt lat="45.25316" lon="0.32351">
        <ele>82</ele>
        <time>2015-09-15T12:10:01Z</time>
      </trkpt>
      <trkpt lat="45.25324" lon="0.32346">
        <ele>82</ele>
        <time>2015-09-15T12:10:08Z</time>
      </trkpt>
      <trkpt lat="45.25332" lon="0.32343">
        <ele>81</ele>
        <time>2015-09-15T12:10:18Z</time>
      </trkpt>
      <trkpt lat="45.25341" lon="0.32345">
        <ele>80</ele>
        <time>2015-09-15T12:10:24Z</time>
      </trkpt>
      <trkpt lat="45.25348" lon="0.32346">
        <ele>79</ele>
        <time>2015-09-15T12:10:31Z</time>
      </trkpt>
      <trkpt lat="45.25357" lon="0.32347">
        <ele>79</ele>
        <time>2015-09-15T12:10:38Z</time>
      </trkpt>
      <trkpt lat="45.25365" lon="0.32349">
        <ele>79</ele>
        <time>2015-09-15T12:10:44Z</time>
      </trkpt>
      <trkpt lat="45.25373" lon="0.3235">
        <ele>79</ele>
        <time>2015-09-15T12:10:50Z</time>
      </trkpt>
      <trkpt lat="45.25381" lon="0.3235">
        <ele>79</ele>
        <time>2015-09-15T12:10:55Z</time>
      </trkpt>
      <trkpt lat="45.25389" lon="0.32349">
        <ele>78</ele>
        <time>2015-09-15T12:11:01Z</time>
      </trkpt>
      <trkpt lat="45.25397" lon="0.32348">
        <ele>76</ele>
        <time>2015-09-15T12:11:08Z</time>
      </trkpt>
      <trkpt lat="45.25405" lon="0.32343">
        <ele>76</ele>
        <time>2015-09-15T12:11:14Z</time>
      </trkpt>
      <trkpt lat="45.25414" lon="0.32341">
        <ele>77</ele>
        <time>2015-09-15T12:11:21Z</time>
      </trkpt>
      <trkpt lat="45.25422" lon="0.32341">
        <ele>76</ele>
        <time>2015-09-15T12:11:28Z</time>
      </trkpt>
      <trkpt lat="45.25431" lon="0.32344">
        <ele>74</ele>
        <time>2015-09-15T12:11:35Z</time>
      </trkpt>
      <trkpt lat="45.25436" lon="0.32354">
        <ele>74</ele>
        <time>2015-09-15T12:11:43Z</time>
      </trkpt>
      <trkpt lat="45.2544" lon="0.32364">
        <ele>73</ele>
        <time>2015-09-15T12:11:50Z</time>
      </trkpt>
      <trkpt lat="45.25444" lon="0.32375">
        <ele>74</ele>
        <time>2015-09-15T12:11:57Z</time>
      </trkpt>
      <trkpt lat="45.25448" lon="0.32385">
        <ele>75</ele>
        <time>2015-09-15T12:12:05Z</time>
      </trkpt>
      <trkpt lat="45.25451" lon="0.32396">
        <ele>76</ele>
        <time>2015-09-15T12:12:12Z</time>
      </trkpt>
      <trkpt lat="45.25456" lon="0.32404">
        <ele>79</ele>
        <time>2015-09-15T12:12:21Z</time>
      </trkpt>
      <trkpt lat="45.25463" lon="0.32411">
        <ele>78</ele>
        <time>2015-09-15T12:12:25Z</time>
      </trkpt>
      <trkpt lat="45.25468" lon="0.32419">
        <ele>78</ele>
        <time>2015-09-15T12:12:32Z</time>
      </trkpt>
      <trkpt lat="45.25474" lon="0.32427">
        <ele>77</ele>
        <time>2015-09-15T12:12:39Z</time>
      </trkpt>
      <trkpt lat="45.2548" lon="0.32437">
        <ele>77</ele>
        <time>2015-09-15T12:12:47Z</time>
      </trkpt>
      <trkpt lat="45.25486" lon="0.32445">
        <ele>78</ele>
        <time>2015-09-15T12:12:54Z</time>
      </trkpt>
      <trkpt lat="45.25492" lon="0.32453">
        <ele>78</ele>
        <time>2015-09-15T12:13:03Z</time>
      </trkpt>
      <trkpt lat="45.25498" lon="0.32461">
        <ele>79</ele>
        <time>2015-09-15T12:13:12Z</time>
      </trkpt>
      <trkpt lat="45.25504" lon="0.32468">
        <ele>78</ele>
        <time>2015-09-15T12:13:19Z</time>
      </trkpt>
      <trkpt lat="45.2551" lon="0.32477">
        <ele>77</ele>
        <time>2015-09-15T12:13:25Z</time>
      </trkpt>
      <trkpt lat="45.25516" lon="0.32486">
        <ele>76</ele>
        <time>2015-09-15T12:13:31Z</time>
      </trkpt>
      <trkpt lat="45.25522" lon="0.32496">
        <ele>76</ele>
        <time>2015-09-15T12:13:39Z</time>
      </trkpt>
      <trkpt lat="45.25525" lon="0.32508">
        <ele>78</ele>
        <time>2015-09-15T12:13:48Z</time>
      </trkpt>
      <trkpt lat="45.25526" lon="0.3252">
        <ele>78</ele>
        <time>2015-09-15T12:13:59Z</time>
      </trkpt>
      <trkpt lat="45.25522" lon="0.3253">
        <ele>78</ele>
        <time>2015-09-15T12:14:09Z</time>
      </trkpt>
      <trkpt lat="45.2552" lon="0.32538">
        <ele>80</ele>
        <time>2015-09-15T12:14:14Z</time>
      </trkpt>
      <trkpt lat="45.25523" lon="0.3255">
        <ele>80</ele>
        <time>2015-09-15T12:14:20Z</time>
      </trkpt>
      <trkpt lat="45.25522" lon="0.32562">
        <ele>82</ele>
        <time>2015-09-15T12:14:27Z</time>
      </trkpt>
      <trkpt lat="45.25521" lon="0.32572">
        <ele>83</ele>
        <time>2015-09-15T12:14:36Z</time>
      </trkpt>
      <trkpt lat="45.2552" lon="0.32584">
        <ele>78</ele>
        <time>2015-09-15T12:14:40Z</time>
      </trkpt>
      <trkpt lat="45.25519" lon="0.32596">
        <ele>75</ele>
        <time>2015-09-15T12:14:45Z</time>
      </trkpt>
      <trkpt lat="45.25514" lon="0.32606">
        <ele>77</ele>
        <time>2015-09-15T12:14:52Z</time>
      </trkpt>
      <trkpt lat="45.25512" lon="0.32618">
        <ele>72</ele>
        <time>2015-09-15T12:15:01Z</time>
      </trkpt>
      <trkpt lat="45.2551" lon="0.32631">
        <ele>67</ele>
        <time>2015-09-15T12:15:11Z</time>
      </trkpt>
      <trkpt lat="45.25506" lon="0.32641">
        <ele>72</ele>
        <time>2015-09-15T12:15:23Z</time>
      </trkpt>
      <trkpt lat="45.25498" lon="0.32643">
        <ele>78</ele>
        <time>2015-09-15T12:15:34Z</time>
      </trkpt>
      <trkpt lat="45.25491" lon="0.32646">
        <ele>79</ele>
        <time>2015-09-15T12:15:45Z</time>
      </trkpt>
      <trkpt lat="45.25483" lon="0.32646">
        <ele>78</ele>
        <time>2015-09-15T12:15:49Z</time>
      </trkpt>
      <trkpt lat="45.25476" lon="0.32649">
        <ele>74</ele>
        <time>2015-09-15T12:15:59Z</time>
      </trkpt>
      <trkpt lat="45.25472" lon="0.32648">
        <ele>78</ele>
        <time>2015-09-15T12:16:03Z</time>
      </trkpt>
      <trkpt lat="45.25464" lon="0.32646">
        <ele>82</ele>
        <time>2015-09-15T12:16:09Z</time>
      </trkpt>
      <trkpt lat="45.25457" lon="0.32647">
        <ele>84</ele>
        <time>2015-09-15T12:16:16Z</time>
      </trkpt>
      <trkpt lat="45.25448" lon="0.32645">
        <ele>84</ele>
        <time>2015-09-15T12:16:26Z</time>
      </trkpt>
      <trkpt lat="45.25441" lon="0.32643">
        <ele>85</ele>
        <time>2015-09-15T12:16:36Z</time>
      </trkpt>
      <trkpt lat="45.25432" lon="0.32643">
        <ele>85</ele>
        <time>2015-09-15T12:16:46Z</time>
      </trkpt>
      <trkpt lat="45.25423" lon="0.32646">
        <ele>84</ele>
        <time>2015-09-15T12:16:51Z</time>
      </trkpt>
      <trkpt lat="45.25414" lon="0.3265">
        <ele>81</ele>
        <time>2015-09-15T12:16:55Z</time>
      </trkpt>
      <trkpt lat="45.25406" lon="0.32654">
        <ele>81</ele>
        <time>2015-09-15T12:17:03Z</time>
      </trkpt>
      <trkpt lat="45.25398" lon="0.32655">
        <ele>82</ele>
        <time>2015-09-15T12:17:08Z</time>
      </trkpt>
      <trkpt lat="45.2539" lon="0.32656">
        <ele>84</ele>
        <time>2015-09-15T12:17:13Z</time>
      </trkpt>
      <trkpt lat="45.25383" lon="0.32659">
        <ele>87</ele>
        <time>2015-09-15T12:17:19Z</time>
      </trkpt>
      <trkpt lat="45.25375" lon="0.32663">
        <ele>86</ele>
        <time>2015-09-15T12:17:26Z</time>
      </trkpt>
      <trkpt lat="45.25368" lon="0.32669">
        <ele>87</ele>
        <time>2015-09-15T12:17:31Z</time>
      </trkpt>
      <trkpt lat="45.2536" lon="0.32671">
        <ele>86</ele>
        <time>2015-09-15T12:17:36Z</time>
      </trkpt>
      <trkpt lat="45.25352" lon="0.32674">
        <ele>91</ele>
        <time>2015-09-15T12:17:46Z</time>
      </trkpt>
      <trkpt lat="45.25343" lon="0.32678">
        <ele>93</ele>
        <time>2015-09-15T12:17:54Z</time>
      </trkpt>
      <trkpt lat="45.25335" lon="0.32681">
        <ele>95</ele>
        <time>2015-09-15T12:18:01Z</time>
      </trkpt>
      <trkpt lat="45.2533" lon="0.32687">
        <ele>95</ele>
        <time>2015-09-15T12:18:06Z</time>
      </trkpt>
      <trkpt lat="45.25332" lon="0.32704">
        <ele>87</ele>
        <time>2015-09-15T12:18:10Z</time>
      </trkpt>
      <trkpt lat="45.25336" lon="0.32716">
        <ele>85</ele>
        <time>2015-09-15T12:18:16Z</time>
      </trkpt>
      <trkpt lat="45.25338" lon="0.32727">
        <ele>82</ele>
        <time>2015-09-15T12:18:27Z</time>
      </trkpt>
      <trkpt lat="45.25343" lon="0.32736">
        <ele>82</ele>
        <time>2015-09-15T12:18:41Z</time>
      </trkpt>
      <trkpt lat="45.2535" lon="0.32743">
        <ele>87</ele>
        <time>2015-09-15T12:18:49Z</time>
      </trkpt>
      <trkpt lat="45.25353" lon="0.32754">
        <ele>87</ele>
        <time>2015-09-15T12:18:59Z</time>
      </trkpt>
      <trkpt lat="45.25358" lon="0.32763">
        <ele>84</ele>
        <time>2015-09-15T12:19:03Z</time>
      </trkpt>
      <trkpt lat="45.25361" lon="0.32775">
        <ele>82</ele>
        <time>2015-09-15T12:19:12Z</time>
      </trkpt>
      <trkpt lat="45.25364" lon="0.32786">
        <ele>80</ele>
        <time>2015-09-15T12:19:16Z</time>
      </trkpt>
      <trkpt lat="45.25368" lon="0.32797">
        <ele>80</ele>
        <time>2015-09-15T12:19:23Z</time>
      </trkpt>
      <trkpt lat="45.25373" lon="0.32808">
        <ele>83</ele>
        <time>2015-09-15T12:19:31Z</time>
      </trkpt>
      <trkpt lat="45.25373" lon="0.32819">
        <ele>82</ele>
        <time>2015-09-15T12:19:37Z</time>
      </trkpt>
      <trkpt lat="45.25373" lon="0.3283">
        <ele>85</ele>
        <time>2015-09-15T12:19:44Z</time>
      </trkpt>
      <trkpt lat="45.25373" lon="0.32842">
        <ele>86</ele>
        <time>2015-09-15T12:19:51Z</time>
      </trkpt>
      <trkpt lat="45.25374" lon="0.32853">
        <ele>87</ele>
        <time>2015-09-15T12:19:58Z</time>
      </trkpt>
      <trkpt lat="45.25376" lon="0.32866">
        <ele>86</ele>
        <time>2015-09-15T12:20:05Z</time>
      </trkpt>
      <trkpt lat="45.25376" lon="0.32878">
        <ele>87</ele>
        <time>2015-09-15T12:20:13Z</time>
      </trkpt>
      <trkpt lat="45.25377" lon="0.3289">
        <ele>88</ele>
        <time>2015-09-15T12:20:20Z</time>
      </trkpt>
      <trkpt lat="45.25379" lon="0.32901">
        <ele>90</ele>
        <time>2015-09-15T12:20:28Z</time>
      </trkpt>
      <trkpt lat="45.2538" lon="0.32913">
        <ele>90</ele>
        <time>2015-09-15T12:20:35Z</time>
      </trkpt>
      <trkpt lat="45.25381" lon="0.32925">
        <ele>86</ele>
        <time>2015-09-15T12:20:43Z</time>
      </trkpt>
      <trkpt lat="45.25383" lon="0.32938">
        <ele>88</ele>
        <time>2015-09-15T12:20:50Z</time>
      </trkpt>
      <trkpt lat="45.25382" lon="0.3295">
        <ele>87</ele>
        <time>2015-09-15T12:20:57Z</time>
      </trkpt>
      <trkpt lat="45.25383" lon="0.32962">
        <ele>86</ele>
        <time>2015-09-15T12:21:05Z</time>
      </trkpt>
      <trkpt lat="45.25383" lon="0.32974">
        <ele>86</ele>
        <time>2015-09-15T12:21:11Z</time>
      </trkpt>
      <trkpt lat="45.25382" lon="0.32985">
        <ele>90</ele>
        <time>2015-09-15T12:21:21Z</time>
      </trkpt>
      <trkpt lat="45.25374" lon="0.3299">
        <ele>89</ele>
        <time>2015-09-15T12:21:29Z</time>
      </trkpt>
      <trkpt lat="45.25365" lon="0.3299">
        <ele>89</ele>
        <time>2015-09-15T12:21:39Z</time>
      </trkpt>
      <trkpt lat="45.25357" lon="0.32991">
        <ele>89</ele>
        <time>2015-09-15T12:21:58Z</time>
      </trkpt>
      <trkpt lat="45.2535" lon="0.3299">
        <ele>92</ele>
        <time>2015-09-15T12:22:03Z</time>
      </trkpt>
      <trkpt lat="45.25342" lon="0.32987">
        <ele>94</ele>
        <time>2015-09-15T12:22:07Z</time>
      </trkpt>
      <trkpt lat="45.25331" lon="0.32995">
        <ele>91</ele>
        <time>2015-09-15T12:22:12Z</time>
      </trkpt>
      <trkpt lat="45.25323" lon="0.32995">
        <ele>90</ele>
        <time>2015-09-15T12:22:16Z</time>
      </trkpt>
      <trkpt lat="45.25314" lon="0.32998">
        <ele>90</ele>
        <time>2015-09-15T12:22:21Z</time>
      </trkpt>
      <trkpt lat="45.25306" lon="0.32995">
        <ele>92</ele>
        <time>2015-09-15T12:22:30Z</time>
      </trkpt>
      <trkpt lat="45.25297" lon="0.32995">
        <ele>91</ele>
        <time>2015-09-15T12:22:39Z</time>
      </trkpt>
      <trkpt lat="45.25289" lon="0.32998">
        <ele>88</ele>
        <time>2015-09-15T12:22:48Z</time>
      </trkpt>
      <trkpt lat="45.2528" lon="0.33001">
        <ele>84</ele>
        <time>2015-09-15T12:22:54Z</time>
      </trkpt>
      <trkpt lat="45.25272" lon="0.33">
        <ele>86</ele>
        <time>2015-09-15T12:23:00Z</time>
      </trkpt>
      <trkpt lat="45.25264" lon="0.33001">
        <ele>90</ele>
        <time>2015-09-15T12:23:08Z</time>
      </trkpt>
      <trkpt lat="45.25258" lon="0.33003">
        <ele>90</ele>
        <time>2015-09-15T12:23:20Z</time>
      </trkpt>
      <trkpt lat="45.25249" lon="0.33002">
        <ele>91</ele>
        <time>2015-09-15T12:23:26Z</time>
      </trkpt>
      <trkpt lat="45.25241" lon="0.33001">
        <ele>93</ele>
        <time>2015-09-15T12:23:31Z</time>
      </trkpt>
      <trkpt lat="45.25232" lon="0.33004">
        <ele>93</ele>
        <time>2015-09-15T12:23:39Z</time>
      </trkpt>
      <trkpt lat="45.25224" lon="0.33008">
        <ele>93</ele>
        <time>2015-09-15T12:24:09Z</time>
      </trkpt>
      <trkpt lat="45.25216" lon="0.33008">
        <ele>93</ele>
        <time>2015-09-15T12:24:17Z</time>
      </trkpt>
      <trkpt lat="45.2521" lon="0.33017">
        <ele>90</ele>
        <time>2015-09-15T12:24:26Z</time>
      </trkpt>
      <trkpt lat="45.25203" lon="0.33023">
        <ele>94</ele>
        <time>2015-09-15T12:24:45Z</time>
      </trkpt>
      <trkpt lat="45.25194" lon="0.33023">
        <ele>94</ele>
        <time>2015-09-15T12:24:52Z</time>
      </trkpt>
      <trkpt lat="45.25186" lon="0.33023">
        <ele>96</ele>
        <time>2015-09-15T12:25:00Z</time>
      </trkpt>
      <trkpt lat="45.25178" lon="0.33022">
        <ele>96</ele>
        <time>2015-09-15T12:25:06Z</time>
      </trkpt>
      <trkpt lat="45.2517" lon="0.33021">
        <ele>97</ele>
        <time>2015-09-15T12:25:13Z</time>
      </trkpt>
      <trkpt lat="45.25161" lon="0.33019">
        <ele>96</ele>
        <time>2015-09-15T12:25:22Z</time>
      </trkpt>
      <trkpt lat="45.25152" lon="0.33017">
        <ele>99</ele>
        <time>2015-09-15T12:25:30Z</time>
      </trkpt>
      <trkpt lat="45.25144" lon="0.33015">
        <ele>98</ele>
        <time>2015-09-15T12:25:40Z</time>
      </trkpt>
      <trkpt lat="45.25139" lon="0.33025">
        <ele>98</ele>
        <time>2015-09-15T12:25:48Z</time>
      </trkpt>
      <trkpt lat="45.25131" lon="0.33022">
        <ele>100</ele>
        <time>2015-09-15T12:25:54Z</time>
      </trkpt>
      <trkpt lat="45.25122" lon="0.33023">
        <ele>102</ele>
        <time>2015-09-15T12:26:03Z</time>
      </trkpt>
      <trkpt lat="45.25115" lon="0.33016">
        <ele>99</ele>
        <time>2015-09-15T12:26:12Z</time>
      </trkpt>
      <trkpt lat="45.25107" lon="0.33016">
        <ele>100</ele>
        <time>2015-09-15T12:26:19Z</time>
      </trkpt>
      <trkpt lat="45.25099" lon="0.33015">
        <ele>102</ele>
        <time>2015-09-15T12:26:25Z</time>
      </trkpt>
      <trkpt lat="45.2509" lon="0.33018">
        <ele>104</ele>
        <time>2015-09-15T12:26:32Z</time>
      </trkpt>
      <trkpt lat="45.25081" lon="0.33018">
        <ele>106</ele>
        <time>2015-09-15T12:26:40Z</time>
      </trkpt>
      <trkpt lat="45.25073" lon="0.33016">
        <ele>109</ele>
        <time>2015-09-15T12:26:47Z</time>
      </trkpt>
      <trkpt lat="45.25065" lon="0.33013">
        <ele>109</ele>
        <time>2015-09-15T12:26:57Z</time>
      </trkpt>
      <trkpt lat="45.25057" lon="0.3301">
        <ele>109</ele>
        <time>2015-09-15T12:27:04Z</time>
      </trkpt>
      <trkpt lat="45.2505" lon="0.33006">
        <ele>108</ele>
        <time>2015-09-15T12:27:10Z</time>
      </trkpt>
      <trkpt lat="45.25042" lon="0.33005">
        <ele>108</ele>
        <time>2015-09-15T12:27:16Z</time>
      </trkpt>
      <trkpt lat="45.25034" lon="0.33003">
        <ele>107</ele>
        <time>2015-09-15T12:27:22Z</time>
      </trkpt>
      <trkpt lat="45.25026" lon="0.33">
        <ele>105</ele>
        <time>2015-09-15T12:27:29Z</time>
      </trkpt>
      <trkpt lat="45.25017" lon="0.33">
        <ele>104</ele>
        <time>2015-09-15T12:27:47Z</time>
      </trkpt>
      <trkpt lat="45.25012" lon="0.32991">
        <ele>103</ele>
        <time>2015-09-15T12:27:58Z</time>
      </trkpt>
      <trkpt lat="45.25012" lon="0.32978">
        <ele>105</ele>
        <time>2015-09-15T12:28:11Z</time>
      </trkpt>
      <trkpt lat="45.25014" lon="0.32966">
        <ele>107</ele>
        <time>2015-09-15T12:28:19Z</time>
      </trkpt>
      <trkpt lat="45.25014" lon="0.32953">
        <ele>107</ele>
        <time>2015-09-15T12:28:26Z</time>
      </trkpt>
      <trkpt lat="45.25014" lon="0.32942">
        <ele>106</ele>
        <time>2015-09-15T12:28:34Z</time>
      </trkpt>
      <trkpt lat="45.25015" lon="0.3293">
        <ele>107</ele>
        <time>2015-09-15T12:28:41Z</time>
      </trkpt>
      <trkpt lat="45.25016" lon="0.32918">
        <ele>104</ele>
        <time>2015-09-15T12:28:49Z</time>
      </trkpt>
      <trkpt lat="45.25018" lon="0.32906">
        <ele>104</ele>
        <time>2015-09-15T12:28:56Z</time>
      </trkpt>
      <trkpt lat="45.2502" lon="0.32894">
        <ele>105</ele>
        <time>2015-09-15T12:29:06Z</time>
      </trkpt>
      <trkpt lat="45.25021" lon="0.32881">
        <ele>109</ele>
        <time>2015-09-15T12:29:16Z</time>
      </trkpt>
      <trkpt lat="45.25023" lon="0.3287">
        <ele>109</ele>
        <time>2015-09-15T12:29:23Z</time>
      </trkpt>
      <trkpt lat="45.25026" lon="0.32859">
        <ele>109</ele>
        <time>2015-09-15T12:29:30Z</time>
      </trkpt>
      <trkpt lat="45.2503" lon="0.32848">
        <ele>110</ele>
        <time>2015-09-15T12:29:38Z</time>
      </trkpt>
      <trkpt lat="45.25033" lon="0.32837">
        <ele>109</ele>
        <time>2015-09-15T12:29:46Z</time>
      </trkpt>
      <trkpt lat="45.25036" lon="0.32825">
        <ele>107</ele>
        <time>2015-09-15T12:29:57Z</time>
      </trkpt>
      <trkpt lat="45.25037" lon="0.32813">
        <ele>107</ele>
        <time>2015-09-15T12:30:05Z</time>
      </trkpt>
      <trkpt lat="45.25038" lon="0.328">
        <ele>106</ele>
        <time>2015-09-15T12:30:12Z</time>
      </trkpt>
      <trkpt lat="45.25036" lon="0.3279">
        <ele>103</ele>
        <time>2015-09-15T12:30:23Z</time>
      </trkpt>
      <trkpt lat="45.25036" lon="0.32779">
        <ele>100</ele>
        <time>2015-09-15T12:30:28Z</time>
      </trkpt>
      <trkpt lat="45.25037" lon="0.32767">
        <ele>102</ele>
        <time>2015-09-15T12:30:34Z</time>
      </trkpt>
      <trkpt lat="45.25039" lon="0.32754">
        <ele>101</ele>
        <time>2015-09-15T12:30:44Z</time>
      </trkpt>
      <trkpt lat="45.25042" lon="0.32745">
        <ele>103</ele>
        <time>2015-09-15T12:30:48Z</time>
      </trkpt>
      <trkpt lat="45.25045" lon="0.32734">
        <ele>101</ele>
        <time>2015-09-15T12:30:54Z</time>
      </trkpt>
      <trkpt lat="45.25044" lon="0.32722">
        <ele>99</ele>
        <time>2015-09-15T12:30:59Z</time>
      </trkpt>
      <trkpt lat="45.25038" lon="0.32713">
        <ele>97</ele>
        <time>2015-09-15T12:31:07Z</time>
      </trkpt>
      <trkpt lat="45.2503" lon="0.32712">
        <ele>98</ele>
        <time>2015-09-15T12:31:13Z</time>
      </trkpt>
      <trkpt lat="45.25022" lon="0.32709">
        <ele>101</ele>
        <time>2015-09-15T12:31:19Z</time>
      </trkpt>
      <trkpt lat="45.25014" lon="0.32706">
        <ele>104</ele>
        <time>2015-09-15T12:31:26Z</time>
      </trkpt>
      <trkpt lat="45.25005" lon="0.32704">
        <ele>105</ele>
        <time>2015-09-15T12:31:33Z</time>
      </trkpt>
      <trkpt lat="45.24997" lon="0.32703">
        <ele>108</ele>
        <time>2015-09-15T12:31:39Z</time>
      </trkpt>
      <trkpt lat="45.24989" lon="0.32702">
        <ele>110</ele>
        <time>2015-09-15T12:31:47Z</time>
      </trkpt>
      <trkpt lat="45.24982" lon="0.327">
        <ele>114</ele>
        <time>2015-09-15T12:31:56Z</time>
      </trkpt>
      <trkpt lat="45.24973" lon="0.32699">
        <ele>117</ele>
        <time>2015-09-15T12:32:04Z</time>
      </trkpt>
      <trkpt lat="45.24964" lon="0.32699">
        <ele>116</ele>
        <time>2015-09-15T12:32:11Z</time>
      </trkpt>
      <trkpt lat="45.24956" lon="0.32701">
        <ele>116</ele>
        <time>2015-09-15T12:32:19Z</time>
      </trkpt>
      <trkpt lat="45.24947" lon="0.32702">
        <ele>115</ele>
        <time>2015-09-15T12:32:25Z</time>
      </trkpt>
      <trkpt lat="45.24939" lon="0.32697">
        <ele>119</ele>
        <time>2015-09-15T12:32:35Z</time>
      </trkpt>
      <trkpt lat="45.24929" lon="0.32705">
        <ele>114</ele>
        <time>2015-09-15T12:32:40Z</time>
      </trkpt>
      <trkpt lat="45.24919" lon="0.32712">
        <ele>111</ele>
        <time>2015-09-15T12:32:45Z</time>
      </trkpt>
      <trkpt lat="45.24911" lon="0.32706">
        <ele>109</ele>
        <time>2015-09-15T12:32:55Z</time>
      </trkpt>
      <trkpt lat="45.24903" lon="0.32702">
        <ele>106</ele>
        <time>2015-09-15T12:33:05Z</time>
      </trkpt>
      <trkpt lat="45.24899" lon="0.32691">
        <ele>109</ele>
        <time>2015-09-15T12:33:15Z</time>
      </trkpt>
      <trkpt lat="45.24895" lon="0.32682">
        <ele>107</ele>
        <time>2015-09-15T12:33:23Z</time>
      </trkpt>
      <trkpt lat="45.24892" lon="0.32672">
        <ele>108</ele>
        <time>2015-09-15T12:33:28Z</time>
      </trkpt>
      <trkpt lat="45.24888" lon="0.32662">
        <ele>107</ele>
        <time>2015-09-15T12:33:33Z</time>
      </trkpt>
      <trkpt lat="45.24884" lon="0.32651">
        <ele>106</ele>
        <time>2015-09-15T12:33:44Z</time>
      </trkpt>
      <trkpt lat="45.24882" lon="0.32641">
        <ele>105</ele>
        <time>2015-09-15T12:33:58Z</time>
      </trkpt>
      <trkpt lat="45.24879" lon="0.3263">
        <ele>107</ele>
        <time>2015-09-15T12:34:04Z</time>
      </trkpt>
      <trkpt lat="45.24875" lon="0.32617">
        <ele>102</ele>
        <time>2015-09-15T12:34:09Z</time>
      </trkpt>
      <trkpt lat="45.24872" lon="0.32607">
        <ele>102</ele>
        <time>2015-09-15T12:34:16Z</time>
      </trkpt>
      <trkpt lat="45.24867" lon="0.32598">
        <ele>101</ele>
        <time>2015-09-15T12:34:21Z</time>
      </trkpt>
      <trkpt lat="45.24865" lon="0.32587">
        <ele>103</ele>
        <time>2015-09-15T12:34:29Z</time>
      </trkpt>
      <trkpt lat="45.24862" lon="0.32574">
        <ele>103</ele>
        <time>2015-09-15T12:34:35Z</time>
      </trkpt>
      <trkpt lat="45.24862" lon="0.32563">
        <ele>101</ele>
        <time>2015-09-15T12:34:41Z</time>
      </trkpt>
      <trkpt lat="45.24861" lon="0.3255">
        <ele>99</ele>
        <time>2015-09-15T12:34:48Z</time>
      </trkpt>
      <trkpt lat="45.24859" lon="0.32538">
        <ele>96</ele>
        <time>2015-09-15T12:34:55Z</time>
      </trkpt>
      <trkpt lat="45.24863" lon="0.32527">
        <ele>96</ele>
        <time>2015-09-15T12:35:03Z</time>
      </trkpt>
      <trkpt lat="45.24863" lon="0.32515">
        <ele>97</ele>
        <time>2015-09-15T12:35:11Z</time>
      </trkpt>
      <trkpt lat="45.24861" lon="0.32505">
        <ele>94</ele>
        <time>2015-09-15T12:35:19Z</time>
      </trkpt>
      <trkpt lat="45.24859" lon="0.32494">
        <ele>94</ele>
        <time>2015-09-15T12:35:27Z</time>
      </trkpt>
      <trkpt lat="45.24858" lon="0.32481">
        <ele>89</ele>
        <time>2015-09-15T12:35:34Z</time>
      </trkpt>
      <trkpt lat="45.24857" lon="0.32469">
        <ele>89</ele>
        <time>2015-09-15T12:35:42Z</time>
      </trkpt>
      <trkpt lat="45.24858" lon="0.32458">
        <ele>90</ele>
        <time>2015-09-15T12:35:48Z</time>
      </trkpt>
      <trkpt lat="45.24857" lon="0.32446">
        <ele>90</ele>
        <time>2015-09-15T12:35:55Z</time>
      </trkpt>
      <trkpt lat="45.24857" lon="0.32434">
        <ele>89</ele>
        <time>2015-09-15T12:36:02Z</time>
      </trkpt>
      <trkpt lat="45.24858" lon="0.32422">
        <ele>88</ele>
        <time>2015-09-15T12:36:10Z</time>
      </trkpt>
      <trkpt lat="45.24859" lon="0.3241">
        <ele>88</ele>
        <time>2015-09-15T12:36:16Z</time>
      </trkpt>
      <trkpt lat="45.2486" lon="0.32398">
        <ele>87</ele>
        <time>2015-09-15T12:36:23Z</time>
      </trkpt>
      <trkpt lat="45.24864" lon="0.32387">
        <ele>85</ele>
        <time>2015-09-15T12:36:29Z</time>
      </trkpt>
      <trkpt lat="45.24871" lon="0.32382">
        <ele>87</ele>
        <time>2015-09-15T12:36:38Z</time>
      </trkpt>
      <trkpt lat="45.24879" lon="0.32378">
        <ele>87</ele>
        <time>2015-09-15T12:36:46Z</time>
      </trkpt>
      <trkpt lat="45.24887" lon="0.32375">
        <ele>86</ele>
        <time>2015-09-15T12:36:55Z</time>
      </trkpt>
      <trkpt lat="45.24889" lon="0.32371">
        <ele>87</ele>
        <time>2015-09-15T12:37:03Z</time>
      </trkpt>
      <trkpt lat="45.2489" lon="0.32355">
        <ele>84</ele>
        <time>2015-09-15T12:37:07Z</time>
      </trkpt>
      <trkpt lat="45.24894" lon="0.32345">
        <ele>93</ele>
        <time>2015-09-15T12:37:17Z</time>
      </trkpt>
      <trkpt lat="45.24893" lon="0.32334">
        <ele>99</ele>
        <time>2015-09-15T12:37:26Z</time>
      </trkpt>
      <trkpt lat="45.24892" lon="0.32322">
        <ele>95</ele>
        <time>2015-09-15T12:37:33Z</time>
      </trkpt>
      <trkpt lat="45.2489" lon="0.3231">
        <ele>92</ele>
        <time>2015-09-15T12:37:39Z</time>
      </trkpt>
      <trkpt lat="45.2489" lon="0.32298">
        <ele>92</ele>
        <time>2015-09-15T12:37:46Z</time>
      </trkpt>
      <trkpt lat="45.24885" lon="0.32288">
        <ele>93</ele>
        <time>2015-09-15T12:37:52Z</time>
      </trkpt>
      <trkpt lat="45.24884" lon="0.32276">
        <ele>96</ele>
        <time>2015-09-15T12:38:00Z</time>
      </trkpt>
      <trkpt lat="45.24881" lon="0.32264">
        <ele>98</ele>
        <time>2015-09-15T12:38:08Z</time>
      </trkpt>
      <trkpt lat="45.2488" lon="0.32252">
        <ele>98</ele>
        <time>2015-09-15T12:38:14Z</time>
      </trkpt>
      <trkpt lat="45.24878" lon="0.3224">
        <ele>97</ele>
        <time>2015-09-15T12:38:21Z</time>
      </trkpt>
      <trkpt lat="45.24877" lon="0.32228">
        <ele>96</ele>
        <time>2015-09-15T12:38:27Z</time>
      </trkpt>
      <trkpt lat="45.24876" lon="0.32216">
        <ele>98</ele>
        <time>2015-09-15T12:38:35Z</time>
      </trkpt>
      <trkpt lat="45.24875" lon="0.32204">
        <ele>101</ele>
        <time>2015-09-15T12:38:43Z</time>
      </trkpt>
      <trkpt lat="45.24872" lon="0.32193">
        <ele>101</ele>
        <time>2015-09-15T12:38:50Z</time>
      </trkpt>
      <trkpt lat="45.2487" lon="0.32181">
        <ele>101</ele>
        <time>2015-09-15T12:38:57Z</time>
      </trkpt>
      <trkpt lat="45.24868" lon="0.3217">
        <ele>101</ele>
        <time>2015-09-15T12:39:05Z</time>
      </trkpt>
      <trkpt lat="45.24864" lon="0.32159">
        <ele>100</ele>
        <time>2015-09-15T12:39:11Z</time>
      </trkpt>
      <trkpt lat="45.24863" lon="0.32148">
        <ele>101</ele>
        <time>2015-09-15T12:39:18Z</time>
      </trkpt>
      <trkpt lat="45.24863" lon="0.32135">
        <ele>101</ele>
        <time>2015-09-15T12:39:24Z</time>
      </trkpt>
      <trkpt lat="45.24862" lon="0.32125">
        <ele>103</ele>
        <time>2015-09-15T12:39:30Z</time>
      </trkpt>
      <trkpt lat="45.24859" lon="0.32113">
        <ele>104</ele>
        <time>2015-09-15T12:39:37Z</time>
      </trkpt>
      <trkpt lat="45.24856" lon="0.32103">
        <ele>105</ele>
        <time>2015-09-15T12:39:44Z</time>
      </trkpt>
      <trkpt lat="45.24854" lon="0.32091">
        <ele>105</ele>
        <time>2015-09-15T12:39:52Z</time>
      </trkpt>
      <trkpt lat="45.24852" lon="0.32079">
        <ele>104</ele>
        <time>2015-09-15T12:40:00Z</time>
      </trkpt>
      <trkpt lat="45.24851" lon="0.32067">
        <ele>105</ele>
        <time>2015-09-15T12:40:08Z</time>
      </trkpt>
      <trkpt lat="45.24848" lon="0.32056">
        <ele>108</ele>
        <time>2015-09-15T12:40:17Z</time>
      </trkpt>
      <trkpt lat="45.24846" lon="0.32045">
        <ele>107</ele>
        <time>2015-09-15T12:40:23Z</time>
      </trkpt>
      <trkpt lat="45.24843" lon="0.32033">
        <ele>102</ele>
        <time>2015-09-15T12:41:31Z</time>
      </trkpt>
      <trkpt lat="45.24837" lon="0.32024">
        <ele>102</ele>
        <time>2015-09-15T12:42:26Z</time>
      </trkpt>
      <trkpt lat="45.24831" lon="0.32016">
        <ele>103</ele>
        <time>2015-09-15T12:42:34Z</time>
      </trkpt>
      <trkpt lat="45.24825" lon="0.32006">
        <ele>105</ele>
        <time>2015-09-15T12:42:44Z</time>
      </trkpt>
      <trkpt lat="45.2482" lon="0.31997">
        <ele>105</ele>
        <time>2015-09-15T12:42:52Z</time>
      </trkpt>
      <trkpt lat="45.24815" lon="0.31988">
        <ele>105</ele>
        <time>2015-09-15T12:43:00Z</time>
      </trkpt>
      <trkpt lat="45.24811" lon="0.31978">
        <ele>105</ele>
        <time>2015-09-15T12:43:08Z</time>
      </trkpt>
      <trkpt lat="45.24808" lon="0.31967">
        <ele>103</ele>
        <time>2015-09-15T12:43:17Z</time>
      </trkpt>
      <trkpt lat="45.24805" lon="0.31955">
        <ele>102</ele>
        <time>2015-09-15T12:43:40Z</time>
      </trkpt>
      <trkpt lat="45.24803" lon="0.31943">
        <ele>101</ele>
        <time>2015-09-15T12:44:00Z</time>
      </trkpt>
      <trkpt lat="45.24804" lon="0.31932">
        <ele>104</ele>
        <time>2015-09-15T12:44:09Z</time>
      </trkpt>
      <trkpt lat="45.24803" lon="0.31921">
        <ele>103</ele>
        <time>2015-09-15T12:44:16Z</time>
      </trkpt>
      <trkpt lat="45.24799" lon="0.31909">
        <ele>102</ele>
        <time>2015-09-15T12:44:23Z</time>
      </trkpt>
      <trkpt lat="45.24796" lon="0.31898">
        <ele>102</ele>
        <time>2015-09-15T12:44:30Z</time>
      </trkpt>
      <trkpt lat="45.24791" lon="0.31889">
        <ele>103</ele>
        <time>2015-09-15T12:44:38Z</time>
      </trkpt>
      <trkpt lat="45.24784" lon="0.31882">
        <ele>102</ele>
        <time>2015-09-15T12:44:46Z</time>
      </trkpt>
      <trkpt lat="45.24778" lon="0.31875">
        <ele>102</ele>
        <time>2015-09-15T12:44:53Z</time>
      </trkpt>
      <trkpt lat="45.2477" lon="0.3187">
        <ele>102</ele>
        <time>2015-09-15T12:45:00Z</time>
      </trkpt>
      <trkpt lat="45.24763" lon="0.31866">
        <ele>101</ele>
        <time>2015-09-15T12:45:06Z</time>
      </trkpt>
      <trkpt lat="45.24756" lon="0.31859">
        <ele>100</ele>
        <time>2015-09-15T12:45:13Z</time>
      </trkpt>
      <trkpt lat="45.24751" lon="0.3185">
        <ele>100</ele>
        <time>2015-09-15T12:45:21Z</time>
      </trkpt>
      <trkpt lat="45.2475" lon="0.31838">
        <ele>99</ele>
        <time>2015-09-15T12:45:30Z</time>
      </trkpt>
      <trkpt lat="45.2475" lon="0.31827">
        <ele>100</ele>
        <time>2015-09-15T12:45:39Z</time>
      </trkpt>
      <trkpt lat="45.24749" lon="0.31816">
        <ele>99</ele>
        <time>2015-09-15T12:45:44Z</time>
      </trkpt>
      <trkpt lat="45.24748" lon="0.31805">
        <ele>99</ele>
        <time>2015-09-15T12:45:50Z</time>
      </trkpt>
      <trkpt lat="45.24745" lon="0.31794">
        <ele>97</ele>
        <time>2015-09-15T12:45:56Z</time>
      </trkpt>
      <trkpt lat="45.24738" lon="0.31785">
        <ele>95</ele>
        <time>2015-09-15T12:46:03Z</time>
      </trkpt>
      <trkpt lat="45.2473" lon="0.31779">
        <ele>93</ele>
        <time>2015-09-15T12:46:10Z</time>
      </trkpt>
      <trkpt lat="45.24722" lon="0.31778">
        <ele>95</ele>
        <time>2015-09-15T12:46:19Z</time>
      </trkpt>
      <trkpt lat="45.24713" lon="0.3178">
        <ele>97</ele>
        <time>2015-09-15T12:46:26Z</time>
      </trkpt>
      <trkpt lat="45.24707" lon="0.31784">
        <ele>97</ele>
        <time>2015-09-15T12:46:32Z</time>
      </trkpt>
      <trkpt lat="45.24699" lon="0.31787">
        <ele>96</ele>
        <time>2015-09-15T12:46:38Z</time>
      </trkpt>
      <trkpt lat="45.24691" lon="0.31792">
        <ele>96</ele>
        <time>2015-09-15T12:46:44Z</time>
      </trkpt>
      <trkpt lat="45.24683" lon="0.31794">
        <ele>95</ele>
        <time>2015-09-15T12:46:51Z</time>
      </trkpt>
      <trkpt lat="45.24674" lon="0.31793">
        <ele>93</ele>
        <time>2015-09-15T12:46:59Z</time>
      </trkpt>
      <trkpt lat="45.24667" lon="0.31787">
        <ele>88</ele>
        <time>2015-09-15T12:47:07Z</time>
      </trkpt>
      <trkpt lat="45.24659" lon="0.31783">
        <ele>88</ele>
        <time>2015-09-15T12:47:14Z</time>
      </trkpt>
      <trkpt lat="45.24653" lon="0.3179">
        <ele>90</ele>
        <time>2015-09-15T12:47:20Z</time>
      </trkpt>
      <trkpt lat="45.24647" lon="0.31798">
        <ele>90</ele>
        <time>2015-09-15T12:47:27Z</time>
      </trkpt>
      <trkpt lat="45.2464" lon="0.31803">
        <ele>90</ele>
        <time>2015-09-15T12:47:33Z</time>
      </trkpt>
      <trkpt lat="45.24634" lon="0.31809">
        <ele>88</ele>
        <time>2015-09-15T12:47:39Z</time>
      </trkpt>
      <trkpt lat="45.24628" lon="0.31817">
        <ele>90</ele>
        <time>2015-09-15T12:47:47Z</time>
      </trkpt>
      <trkpt lat="45.24621" lon="0.31824">
        <ele>91</ele>
        <time>2015-09-15T12:47:55Z</time>
      </trkpt>
      <trkpt lat="45.24614" lon="0.3183">
        <ele>92</ele>
        <time>2015-09-15T12:48:02Z</time>
      </trkpt>
      <trkpt lat="45.24606" lon="0.31836">
        <ele>91</ele>
        <time>2015-09-15T12:48:09Z</time>
      </trkpt>
      <trkpt lat="45.24601" lon="0.31845">
        <ele>91</ele>
        <time>2015-09-15T12:48:17Z</time>
      </trkpt>
      <trkpt lat="45.24596" lon="0.31852">
        <ele>91</ele>
        <time>2015-09-15T12:48:22Z</time>
      </trkpt>
      <trkpt lat="45.24591" lon="0.31861">
        <ele>89</ele>
        <time>2015-09-15T12:48:27Z</time>
      </trkpt>
      <trkpt lat="45.24583" lon="0.31868">
        <ele>90</ele>
        <time>2015-09-15T12:48:34Z</time>
      </trkpt>
      <trkpt lat="45.24576" lon="0.31875">
        <ele>90</ele>
        <time>2015-09-15T12:48:41Z</time>
      </trkpt>
      <trkpt lat="45.2457" lon="0.31883">
        <ele>89</ele>
        <time>2015-09-15T12:48:48Z</time>
      </trkpt>
      <trkpt lat="45.24563" lon="0.3189">
        <ele>92</ele>
        <time>2015-09-15T12:48:55Z</time>
      </trkpt>
      <trkpt lat="45.24557" lon="0.31897">
        <ele>93</ele>
        <time>2015-09-15T12:49:02Z</time>
      </trkpt>
      <trkpt lat="45.2455" lon="0.31904">
        <ele>93</ele>
        <time>2015-09-15T12:49:08Z</time>
      </trkpt>
      <trkpt lat="45.24543" lon="0.31911">
        <ele>92</ele>
        <time>2015-09-15T12:49:15Z</time>
      </trkpt>
      <trkpt lat="45.24536" lon="0.31917">
        <ele>91</ele>
        <time>2015-09-15T12:49:23Z</time>
      </trkpt>
      <trkpt lat="45.2453" lon="0.31926">
        <ele>90</ele>
        <time>2015-09-15T12:49:32Z</time>
      </trkpt>
      <trkpt lat="45.24523" lon="0.31933">
        <ele>90</ele>
        <time>2015-09-15T12:49:39Z</time>
      </trkpt>
      <trkpt lat="45.24515" lon="0.31939">
        <ele>91</ele>
        <time>2015-09-15T12:49:46Z</time>
      </trkpt>
      <trkpt lat="45.24508" lon="0.31944">
        <ele>93</ele>
        <time>2015-09-15T12:49:52Z</time>
      </trkpt>
      <trkpt lat="45.245" lon="0.31949">
        <ele>91</ele>
        <time>2015-09-15T12:50:02Z</time>
      </trkpt>
      <trkpt lat="45.24491" lon="0.31953">
        <ele>92</ele>
        <time>2015-09-15T12:50:10Z</time>
      </trkpt>
      <trkpt lat="45.24483" lon="0.31956">
        <ele>93</ele>
        <time>2015-09-15T12:50:19Z</time>
      </trkpt>
      <trkpt lat="45.24476" lon="0.31958">
        <ele>94</ele>
        <time>2015-09-15T12:50:25Z</time>
      </trkpt>
      <trkpt lat="45.24469" lon="0.31965">
        <ele>93</ele>
        <time>2015-09-15T12:50:30Z</time>
      </trkpt>
      <trkpt lat="45.24461" lon="0.31971">
        <ele>95</ele>
        <time>2015-09-15T12:50:42Z</time>
      </trkpt>
      <trkpt lat="45.24457" lon="0.31976">
        <ele>96</ele>
        <time>2015-09-15T12:50:53Z</time>
      </trkpt>
      <trkpt lat="45.24446" lon="0.31986">
        <ele>94</ele>
        <time>2015-09-15T12:50:57Z</time>
      </trkpt>
      <trkpt lat="45.24438" lon="0.31987">
        <ele>93</ele>
        <time>2015-09-15T12:51:01Z</time>
      </trkpt>
      <trkpt lat="45.24432" lon="0.31992">
        <ele>95</ele>
        <time>2015-09-15T12:51:09Z</time>
      </trkpt>
      <trkpt lat="45.24425" lon="0.31995">
        <ele>95</ele>
        <time>2015-09-15T12:51:16Z</time>
      </trkpt>
      <trkpt lat="45.24416" lon="0.31999">
        <ele>98</ele>
        <time>2015-09-15T12:51:22Z</time>
      </trkpt>
      <trkpt lat="45.24408" lon="0.32001">
        <ele>95</ele>
        <time>2015-09-15T12:51:27Z</time>
      </trkpt>
      <trkpt lat="45.244" lon="0.32004">
        <ele>97</ele>
        <time>2015-09-15T12:51:34Z</time>
      </trkpt>
      <trkpt lat="45.24391" lon="0.32006">
        <ele>98</ele>
        <time>2015-09-15T12:51:44Z</time>
      </trkpt>
      <trkpt lat="45.24383" lon="0.32009">
        <ele>98</ele>
        <time>2015-09-15T12:51:50Z</time>
      </trkpt>
      <trkpt lat="45.24376" lon="0.3201">
        <ele>100</ele>
        <time>2015-09-15T12:51:57Z</time>
      </trkpt>
      <trkpt lat="45.24368" lon="0.32016">
        <ele>103</ele>
        <time>2015-09-15T12:52:05Z</time>
      </trkpt>
      <trkpt lat="45.2436" lon="0.32019">
        <ele>101</ele>
        <time>2015-09-15T12:52:09Z</time>
      </trkpt>
      <trkpt lat="45.24352" lon="0.32018">
        <ele>102</ele>
        <time>2015-09-15T12:52:15Z</time>
      </trkpt>
      <trkpt lat="45.24344" lon="0.32019">
        <ele>100</ele>
        <time>2015-09-15T12:52:20Z</time>
      </trkpt>
      <trkpt lat="45.24335" lon="0.3202">
        <ele>97</ele>
        <time>2015-09-15T12:52:27Z</time>
      </trkpt>
      <trkpt lat="45.24326" lon="0.32022">
        <ele>98</ele>
        <time>2015-09-15T12:52:35Z</time>
      </trkpt>
      <trkpt lat="45.24319" lon="0.32022">
        <ele>98</ele>
        <time>2015-09-15T12:52:43Z</time>
      </trkpt>
      <trkpt lat="45.24311" lon="0.32023">
        <ele>95</ele>
        <time>2015-09-15T12:52:48Z</time>
      </trkpt>
      <trkpt lat="45.24302" lon="0.32025">
        <ele>95</ele>
        <time>2015-09-15T12:52:56Z</time>
      </trkpt>
      <trkpt lat="45.24294" lon="0.32026">
        <ele>95</ele>
        <time>2015-09-15T12:53:03Z</time>
      </trkpt>
      <trkpt lat="45.24285" lon="0.32025">
        <ele>95</ele>
        <time>2015-09-15T12:53:09Z</time>
      </trkpt>
      <trkpt lat="45.24277" lon="0.32024">
        <ele>97</ele>
        <time>2015-09-15T12:53:18Z</time>
      </trkpt>
      <trkpt lat="45.24268" lon="0.32024">
        <ele>97</ele>
        <time>2015-09-15T12:53:27Z</time>
      </trkpt>
      <trkpt lat="45.2426" lon="0.32022">
        <ele>97</ele>
        <time>2015-09-15T12:53:36Z</time>
      </trkpt>
      <trkpt lat="45.24252" lon="0.32021">
        <ele>98</ele>
        <time>2015-09-15T12:53:45Z</time>
      </trkpt>
      <trkpt lat="45.24242" lon="0.3202">
        <ele>99</ele>
        <time>2015-09-15T12:53:50Z</time>
      </trkpt>
      <trkpt lat="45.24233" lon="0.32019">
        <ele>97</ele>
        <time>2015-09-15T12:54:02Z</time>
      </trkpt>
      <trkpt lat="45.24226" lon="0.32026">
        <ele>98</ele>
        <time>2015-09-15T12:55:23Z</time>
      </trkpt>
      <trkpt lat="45.2422" lon="0.32017">
        <ele>99</ele>
        <time>2015-09-15T12:55:34Z</time>
      </trkpt>
      <trkpt lat="45.24217" lon="0.32005">
        <ele>95</ele>
        <time>2015-09-15T12:55:43Z</time>
      </trkpt>
      <trkpt lat="45.24215" lon="0.31993">
        <ele>92</ele>
        <time>2015-09-15T12:55:48Z</time>
      </trkpt>
      <trkpt lat="45.24208" lon="0.31986">
        <ele>95</ele>
        <time>2015-09-15T12:55:59Z</time>
      </trkpt>
      <trkpt lat="45.24199" lon="0.31986">
        <ele>97</ele>
        <time>2015-09-15T12:56:09Z</time>
      </trkpt>
      <trkpt lat="45.24189" lon="0.31987">
        <ele>97</ele>
        <time>2015-09-15T12:56:14Z</time>
      </trkpt>
      <trkpt lat="45.24181" lon="0.31986">
        <ele>100</ele>
        <time>2015-09-15T12:56:24Z</time>
      </trkpt>
      <trkpt lat="45.24173" lon="0.31987">
        <ele>101</ele>
        <time>2015-09-15T12:56:32Z</time>
      </trkpt>
      <trkpt lat="45.24166" lon="0.31991">
        <ele>103</ele>
        <time>2015-09-15T12:56:38Z</time>
      </trkpt>
      <trkpt lat="45.24159" lon="0.31994">
        <ele>105</ele>
        <time>2015-09-15T12:56:46Z</time>
      </trkpt>
      <trkpt lat="45.2415" lon="0.31995">
        <ele>105</ele>
        <time>2015-09-15T12:56:54Z</time>
      </trkpt>
      <trkpt lat="45.24141" lon="0.31996">
        <ele>106</ele>
        <time>2015-09-15T12:57:04Z</time>
      </trkpt>
      <trkpt lat="45.24134" lon="0.31995">
        <ele>108</ele>
        <time>2015-09-15T12:57:13Z</time>
      </trkpt>
      <trkpt lat="45.24125" lon="0.31994">
        <ele>106</ele>
        <time>2015-09-15T12:57:18Z</time>
      </trkpt>
      <trkpt lat="45.24117" lon="0.31993">
        <ele>105</ele>
        <time>2015-09-15T12:57:25Z</time>
      </trkpt>
      <trkpt lat="45.24109" lon="0.31993">
        <ele>105</ele>
        <time>2015-09-15T12:57:31Z</time>
      </trkpt>
      <trkpt lat="45.241" lon="0.31992">
        <ele>105</ele>
        <time>2015-09-15T12:57:39Z</time>
      </trkpt>
      <trkpt lat="45.24092" lon="0.31992">
        <ele>104</ele>
        <time>2015-09-15T12:57:45Z</time>
      </trkpt>
      <trkpt lat="45.24084" lon="0.31992">
        <ele>103</ele>
        <time>2015-09-15T12:57:53Z</time>
      </trkpt>
      <trkpt lat="45.24076" lon="0.31993">
        <ele>104</ele>
        <time>2015-09-15T12:58:01Z</time>
      </trkpt>
      <trkpt lat="45.24067" lon="0.31993">
        <ele>104</ele>
        <time>2015-09-15T12:58:09Z</time>
      </trkpt>
      <trkpt lat="45.24059" lon="0.31992">
        <ele>104</ele>
        <time>2015-09-15T12:58:16Z</time>
      </trkpt>
      <trkpt lat="45.24051" lon="0.31993">
        <ele>104</ele>
        <time>2015-09-15T12:58:23Z</time>
      </trkpt>
      <trkpt lat="45.24043" lon="0.31992">
        <ele>105</ele>
        <time>2015-09-15T12:58:30Z</time>
      </trkpt>
      <trkpt lat="45.24034" lon="0.31992">
        <ele>103</ele>
        <time>2015-09-15T12:58:38Z</time>
      </trkpt>
      <trkpt lat="45.24025" lon="0.31993">
        <ele>102</ele>
        <time>2015-09-15T12:58:45Z</time>
      </trkpt>
      <trkpt lat="45.24016" lon="0.31995">
        <ele>103</ele>
        <time>2015-09-15T12:58:53Z</time>
      </trkpt>
      <trkpt lat="45.24008" lon="0.31995">
        <ele>104</ele>
        <time>2015-09-15T12:59:01Z</time>
      </trkpt>
      <trkpt lat="45.24" lon="0.31997">
        <ele>106</ele>
        <time>2015-09-15T12:59:08Z</time>
      </trkpt>
      <trkpt lat="45.23992" lon="0.32001">
        <ele>106</ele>
        <time>2015-09-15T12:59:14Z</time>
      </trkpt>
      <trkpt lat="45.23984" lon="0.32005">
        <ele>106</ele>
        <time>2015-09-15T12:59:22Z</time>
      </trkpt>
      <trkpt lat="45.23976" lon="0.32009">
        <ele>106</ele>
        <time>2015-09-15T12:59:29Z</time>
      </trkpt>
      <trkpt lat="45.23968" lon="0.32012">
        <ele>107</ele>
        <time>2015-09-15T12:59:36Z</time>
      </trkpt>
      <trkpt lat="45.2396" lon="0.32017">
        <ele>106</ele>
        <time>2015-09-15T12:59:43Z</time>
      </trkpt>
      <trkpt lat="45.23953" lon="0.32021">
        <ele>106</ele>
        <time>2015-09-15T12:59:50Z</time>
      </trkpt>
      <trkpt lat="45.23945" lon="0.32026">
        <ele>105</ele>
        <time>2015-09-15T12:59:57Z</time>
      </trkpt>
      <trkpt lat="45.23936" lon="0.32029">
        <ele>105</ele>
        <time>2015-09-15T13:00:04Z</time>
      </trkpt>
      <trkpt lat="45.23929" lon="0.32034">
        <ele>105</ele>
        <time>2015-09-15T13:00:11Z</time>
      </trkpt>
      <trkpt lat="45.23921" lon="0.32039">
        <ele>105</ele>
        <time>2015-09-15T13:00:18Z</time>
      </trkpt>
      <trkpt lat="45.23913" lon="0.32045">
        <ele>106</ele>
        <time>2015-09-15T13:00:26Z</time>
      </trkpt>
      <trkpt lat="45.23905" lon="0.32051">
        <ele>106</ele>
        <time>2015-09-15T13:00:34Z</time>
      </trkpt>
      <trkpt lat="45.23898" lon="0.32057">
        <ele>106</ele>
        <time>2015-09-15T13:00:41Z</time>
      </trkpt>
      <trkpt lat="45.23891" lon="0.32063">
        <ele>105</ele>
        <time>2015-09-15T13:00:47Z</time>
      </trkpt>
      <trkpt lat="45.23884" lon="0.32068">
        <ele>106</ele>
        <time>2015-09-15T13:00:55Z</time>
      </trkpt>
      <trkpt lat="45.23877" lon="0.32074">
        <ele>107</ele>
        <time>2015-09-15T13:01:02Z</time>
      </trkpt>
      <trkpt lat="45.2387" lon="0.3208">
        <ele>107</ele>
        <time>2015-09-15T13:01:09Z</time>
      </trkpt>
      <trkpt lat="45.23862" lon="0.32085">
        <ele>107</ele>
        <time>2015-09-15T13:01:16Z</time>
      </trkpt>
      <trkpt lat="45.23856" lon="0.32092">
        <ele>106</ele>
        <time>2015-09-15T13:01:22Z</time>
      </trkpt>
      <trkpt lat="45.23849" lon="0.32098">
        <ele>106</ele>
        <time>2015-09-15T13:01:29Z</time>
      </trkpt>
      <trkpt lat="45.23842" lon="0.32106">
        <ele>105</ele>
        <time>2015-09-15T13:01:37Z</time>
      </trkpt>
      <trkpt lat="45.23835" lon="0.32113">
        <ele>105</ele>
        <time>2015-09-15T13:01:44Z</time>
      </trkpt>
      <trkpt lat="45.23828" lon="0.32118">
        <ele>106</ele>
        <time>2015-09-15T13:01:51Z</time>
      </trkpt>
      <trkpt lat="45.23821" lon="0.32125">
        <ele>107</ele>
        <time>2015-09-15T13:01:58Z</time>
      </trkpt>
      <trkpt lat="45.23813" lon="0.32132">
        <ele>106</ele>
        <time>2015-09-15T13:02:06Z</time>
      </trkpt>
      <trkpt lat="45.23806" lon="0.32137">
        <ele>105</ele>
        <time>2015-09-15T13:02:13Z</time>
      </trkpt>
      <trkpt lat="45.238" lon="0.32143">
        <ele>105</ele>
        <time>2015-09-15T13:02:19Z</time>
      </trkpt>
      <trkpt lat="45.23792" lon="0.32149">
        <ele>105</ele>
        <time>2015-09-15T13:02:27Z</time>
      </trkpt>
      <trkpt lat="45.23784" lon="0.32154">
        <ele>106</ele>
        <time>2015-09-15T13:02:34Z</time>
      </trkpt>
      <trkpt lat="45.23777" lon="0.32158">
        <ele>106</ele>
        <time>2015-09-15T13:02:41Z</time>
      </trkpt>
      <trkpt lat="45.23769" lon="0.32163">
        <ele>104</ele>
        <time>2015-09-15T13:02:49Z</time>
      </trkpt>
      <trkpt lat="45.2376" lon="0.32163">
        <ele>104</ele>
        <time>2015-09-15T13:05:21Z</time>
      </trkpt>
      <trkpt lat="45.23755" lon="0.32153">
        <ele>102</ele>
        <time>2015-09-15T13:05:30Z</time>
      </trkpt>
      <trkpt lat="45.23752" lon="0.32142">
        <ele>99</ele>
        <time>2015-09-15T13:05:38Z</time>
      </trkpt>
      <trkpt lat="45.23747" lon="0.32132">
        <ele>100</ele>
        <time>2015-09-15T13:05:45Z</time>
      </trkpt>
      <trkpt lat="45.23741" lon="0.32123">
        <ele>99</ele>
        <time>2015-09-15T13:05:53Z</time>
      </trkpt>
      <trkpt lat="45.23735" lon="0.32114">
        <ele>98</ele>
        <time>2015-09-15T13:06:02Z</time>
      </trkpt>
      <trkpt lat="45.23729" lon="0.32106">
        <ele>97</ele>
        <time>2015-09-15T13:06:09Z</time>
      </trkpt>
      <trkpt lat="45.23723" lon="0.32098">
        <ele>97</ele>
        <time>2015-09-15T13:06:16Z</time>
      </trkpt>
      <trkpt lat="45.23717" lon="0.3209">
        <ele>97</ele>
        <time>2015-09-15T13:06:23Z</time>
      </trkpt>
      <trkpt lat="45.2371" lon="0.32082">
        <ele>97</ele>
        <time>2015-09-15T13:06:30Z</time>
      </trkpt>
      <trkpt lat="45.23704" lon="0.32073">
        <ele>98</ele>
        <time>2015-09-15T13:06:40Z</time>
      </trkpt>
      <trkpt lat="45.23699" lon="0.32062">
        <ele>98</ele>
        <time>2015-09-15T13:06:48Z</time>
      </trkpt>
      <trkpt lat="45.23693" lon="0.32055">
        <ele>96</ele>
        <time>2015-09-15T13:06:54Z</time>
      </trkpt>
      <trkpt lat="45.23686" lon="0.32049">
        <ele>95</ele>
        <time>2015-09-15T13:07:00Z</time>
      </trkpt>
      <trkpt lat="45.23679" lon="0.32042">
        <ele>94</ele>
        <time>2015-09-15T13:07:07Z</time>
      </trkpt>
      <trkpt lat="45.23675" lon="0.32031">
        <ele>97</ele>
        <time>2015-09-15T13:07:15Z</time>
      </trkpt>
      <trkpt lat="45.23672" lon="0.3202">
        <ele>97</ele>
        <time>2015-09-15T13:07:35Z</time>
      </trkpt>
      <trkpt lat="45.2367" lon="0.3201">
        <ele>97</ele>
        <time>2015-09-15T13:07:43Z</time>
      </trkpt>
      <trkpt lat="45.23668" lon="0.31998">
        <ele>96</ele>
        <time>2015-09-15T13:07:51Z</time>
      </trkpt>
      <trkpt lat="45.23665" lon="0.31987">
        <ele>98</ele>
        <time>2015-09-15T13:07:59Z</time>
      </trkpt>
      <trkpt lat="45.23663" lon="0.31975">
        <ele>100</ele>
        <time>2015-09-15T13:08:06Z</time>
      </trkpt>
      <trkpt lat="45.2366" lon="0.31965">
        <ele>103</ele>
        <time>2015-09-15T13:08:13Z</time>
      </trkpt>
      <trkpt lat="45.2366" lon="0.31953">
        <ele>101</ele>
        <time>2015-09-15T13:08:21Z</time>
      </trkpt>
      <trkpt lat="45.23656" lon="0.31942">
        <ele>102</ele>
        <time>2015-09-15T13:08:29Z</time>
      </trkpt>
      <trkpt lat="45.23652" lon="0.31931">
        <ele>103</ele>
        <time>2015-09-15T13:08:38Z</time>
      </trkpt>
      <trkpt lat="45.23649" lon="0.3192">
        <ele>103</ele>
        <time>2015-09-15T13:08:45Z</time>
      </trkpt>
      <trkpt lat="45.23647" lon="0.31908">
        <ele>104</ele>
        <time>2015-09-15T13:08:53Z</time>
      </trkpt>
      <trkpt lat="45.23647" lon="0.31895">
        <ele>104</ele>
        <time>2015-09-15T13:09:02Z</time>
      </trkpt>
      <trkpt lat="45.23645" lon="0.31884">
        <ele>104</ele>
        <time>2015-09-15T13:09:09Z</time>
      </trkpt>
      <trkpt lat="45.23642" lon="0.31873">
        <ele>104</ele>
        <time>2015-09-15T13:09:17Z</time>
      </trkpt>
      <trkpt lat="45.23638" lon="0.31862">
        <ele>104</ele>
        <time>2015-09-15T13:09:24Z</time>
      </trkpt>
      <trkpt lat="45.23634" lon="0.31851">
        <ele>104</ele>
        <time>2015-09-15T13:09:31Z</time>
      </trkpt>
      <trkpt lat="45.23631" lon="0.31841">
        <ele>104</ele>
        <time>2015-09-15T13:09:38Z</time>
      </trkpt>
      <trkpt lat="45.23629" lon="0.3183">
        <ele>104</ele>
        <time>2015-09-15T13:09:45Z</time>
      </trkpt>
      <trkpt lat="45.23623" lon="0.3182">
        <ele>104</ele>
        <time>2015-09-15T13:10:50Z</time>
      </trkpt>
      <trkpt lat="45.23619" lon="0.31809">
        <ele>105</ele>
        <time>2015-09-15T13:11:14Z</time>
      </trkpt>
      <trkpt lat="45.23617" lon="0.31799">
        <ele>108</ele>
        <time>2015-09-15T13:11:25Z</time>
      </trkpt>
      <trkpt lat="45.23612" lon="0.3179">
        <ele>106</ele>
        <time>2015-09-15T13:11:31Z</time>
      </trkpt>
      <trkpt lat="45.23607" lon="0.31781">
        <ele>105</ele>
        <time>2015-09-15T13:11:39Z</time>
      </trkpt>
      <trkpt lat="45.23602" lon="0.3177">
        <ele>103</ele>
        <time>2015-09-15T13:11:46Z</time>
      </trkpt>
      <trkpt lat="45.23598" lon="0.31759">
        <ele>102</ele>
        <time>2015-09-15T13:11:55Z</time>
      </trkpt>
      <trkpt lat="45.23593" lon="0.3175">
        <ele>100</ele>
        <time>2015-09-15T13:12:30Z</time>
      </trkpt>
      <trkpt lat="45.23589" lon="0.3174">
        <ele>101</ele>
        <time>2015-09-15T13:12:39Z</time>
      </trkpt>
      <trkpt lat="45.23583" lon="0.31733">
        <ele>100</ele>
        <time>2015-09-15T13:12:45Z</time>
      </trkpt>
      <trkpt lat="45.23579" lon="0.31723">
        <ele>101</ele>
        <time>2015-09-15T13:12:52Z</time>
      </trkpt>
      <trkpt lat="45.23574" lon="0.31713">
        <ele>101</ele>
        <time>2015-09-15T13:13:00Z</time>
      </trkpt>
      <trkpt lat="45.23569" lon="0.31705">
        <ele>100</ele>
        <time>2015-09-15T13:13:07Z</time>
      </trkpt>
      <trkpt lat="45.23564" lon="0.31694">
        <ele>100</ele>
        <time>2015-09-15T13:13:16Z</time>
      </trkpt>
      <trkpt lat="45.23571" lon="0.31687">
        <ele>97</ele>
        <time>2015-09-15T13:13:24Z</time>
      </trkpt>
      <trkpt lat="45.23579" lon="0.31681">
        <ele>95</ele>
        <time>2015-09-15T13:13:31Z</time>
      </trkpt>
      <trkpt lat="45.23587" lon="0.31677">
        <ele>96</ele>
        <time>2015-09-15T13:13:42Z</time>
      </trkpt>
      <trkpt lat="45.23595" lon="0.31672">
        <ele>97</ele>
        <time>2015-09-15T13:13:47Z</time>
      </trkpt>
      <trkpt lat="45.23602" lon="0.31667">
        <ele>95</ele>
        <time>2015-09-15T13:13:56Z</time>
      </trkpt>
      <trkpt lat="45.23609" lon="0.3166">
        <ele>95</ele>
        <time>2015-09-15T13:14:04Z</time>
      </trkpt>
      <trkpt lat="45.23616" lon="0.31655">
        <ele>97</ele>
        <time>2015-09-15T13:14:12Z</time>
      </trkpt>
      <trkpt lat="45.23623" lon="0.31648">
        <ele>95</ele>
        <time>2015-09-15T13:14:18Z</time>
      </trkpt>
      <trkpt lat="45.2363" lon="0.31643">
        <ele>96</ele>
        <time>2015-09-15T13:14:26Z</time>
      </trkpt>
      <trkpt lat="45.23637" lon="0.31637">
        <ele>95</ele>
        <time>2015-09-15T13:14:34Z</time>
      </trkpt>
      <trkpt lat="45.23644" lon="0.31631">
        <ele>94</ele>
        <time>2015-09-15T13:14:41Z</time>
      </trkpt>
      <trkpt lat="45.23652" lon="0.31626">
        <ele>95</ele>
        <time>2015-09-15T13:14:51Z</time>
      </trkpt>
      <trkpt lat="45.2366" lon="0.3162">
        <ele>94</ele>
        <time>2015-09-15T13:14:59Z</time>
      </trkpt>
      <trkpt lat="45.23667" lon="0.31614">
        <ele>93</ele>
        <time>2015-09-15T13:15:06Z</time>
      </trkpt>
      <trkpt lat="45.23674" lon="0.3161">
        <ele>92</ele>
        <time>2015-09-15T13:15:13Z</time>
      </trkpt>
      <trkpt lat="45.23682" lon="0.31604">
        <ele>93</ele>
        <time>2015-09-15T13:15:23Z</time>
      </trkpt>
      <trkpt lat="45.23689" lon="0.316">
        <ele>94</ele>
        <time>2015-09-15T13:15:31Z</time>
      </trkpt>
      <trkpt lat="45.23697" lon="0.31595">
        <ele>97</ele>
        <time>2015-09-15T13:15:42Z</time>
      </trkpt>
      <trkpt lat="45.23704" lon="0.3159">
        <ele>95</ele>
        <time>2015-09-15T13:15:49Z</time>
      </trkpt>
      <trkpt lat="45.2371" lon="0.31586">
        <ele>96</ele>
        <time>2015-09-15T13:15:55Z</time>
      </trkpt>
      <trkpt lat="45.23717" lon="0.31579">
        <ele>93</ele>
        <time>2015-09-15T13:16:02Z</time>
      </trkpt>
      <trkpt lat="45.23724" lon="0.31574">
        <ele>92</ele>
        <time>2015-09-15T13:16:08Z</time>
      </trkpt>
      <trkpt lat="45.23733" lon="0.31571">
        <ele>94</ele>
        <time>2015-09-15T13:16:17Z</time>
      </trkpt>
      <trkpt lat="45.23739" lon="0.31564">
        <ele>92</ele>
        <time>2015-09-15T13:16:22Z</time>
      </trkpt>
      <trkpt lat="45.23747" lon="0.3156">
        <ele>93</ele>
        <time>2015-09-15T13:16:31Z</time>
      </trkpt>
      <trkpt lat="45.23755" lon="0.31558">
        <ele>94</ele>
        <time>2015-09-15T13:16:39Z</time>
      </trkpt>
      <trkpt lat="45.23763" lon="0.31556">
        <ele>93</ele>
        <time>2015-09-15T13:16:46Z</time>
      </trkpt>
      <trkpt lat="45.23771" lon="0.31556">
        <ele>93</ele>
        <time>2015-09-15T13:16:53Z</time>
      </trkpt>
      <trkpt lat="45.2378" lon="0.31556">
        <ele>91</ele>
        <time>2015-09-15T13:17:01Z</time>
      </trkpt>
      <trkpt lat="45.23789" lon="0.31557">
        <ele>91</ele>
        <time>2015-09-15T13:17:08Z</time>
      </trkpt>
      <trkpt lat="45.23796" lon="0.31559">
        <ele>90</ele>
        <time>2015-09-15T13:17:14Z</time>
      </trkpt>
      <trkpt lat="45.23805" lon="0.31558">
        <ele>91</ele>
        <time>2015-09-15T13:17:21Z</time>
      </trkpt>
      <trkpt lat="45.23812" lon="0.31553">
        <ele>91</ele>
        <time>2015-09-15T13:17:26Z</time>
      </trkpt>
      <trkpt lat="45.23821" lon="0.31554">
        <ele>90</ele>
        <time>2015-09-15T13:17:34Z</time>
      </trkpt>
      <trkpt lat="45.2383" lon="0.31557">
        <ele>88</ele>
        <time>2015-09-15T13:17:42Z</time>
      </trkpt>
      <trkpt lat="45.23837" lon="0.31557">
        <ele>89</ele>
        <time>2015-09-15T13:17:49Z</time>
      </trkpt>
      <trkpt lat="45.23845" lon="0.31555">
        <ele>91</ele>
        <time>2015-09-15T13:17:55Z</time>
      </trkpt>
      <trkpt lat="45.23853" lon="0.31554">
        <ele>91</ele>
        <time>2015-09-15T13:18:02Z</time>
      </trkpt>
      <trkpt lat="45.23862" lon="0.31554">
        <ele>86</ele>
        <time>2015-09-15T13:18:10Z</time>
      </trkpt>
      <trkpt lat="45.23871" lon="0.31552">
        <ele>87</ele>
        <time>2015-09-15T13:18:18Z</time>
      </trkpt>
      <trkpt lat="45.23879" lon="0.3155">
        <ele>90</ele>
        <time>2015-09-15T13:18:26Z</time>
      </trkpt>
      <trkpt lat="45.23888" lon="0.31548">
        <ele>89</ele>
        <time>2015-09-15T13:18:35Z</time>
      </trkpt>
      <trkpt lat="45.23896" lon="0.31545">
        <ele>90</ele>
        <time>2015-09-15T13:18:42Z</time>
      </trkpt>
      <trkpt lat="45.23904" lon="0.31541">
        <ele>88</ele>
        <time>2015-09-15T13:18:50Z</time>
      </trkpt>
      <trkpt lat="45.23912" lon="0.31538">
        <ele>88</ele>
        <time>2015-09-15T13:18:58Z</time>
      </trkpt>
      <trkpt lat="45.2392" lon="0.31535">
        <ele>87</ele>
        <time>2015-09-15T13:19:07Z</time>
      </trkpt>
      <trkpt lat="45.23928" lon="0.31531">
        <ele>87</ele>
        <time>2015-09-15T13:19:14Z</time>
      </trkpt>
      <trkpt lat="45.23936" lon="0.31526">
        <ele>85</ele>
        <time>2015-09-15T13:19:22Z</time>
      </trkpt>
      <trkpt lat="45.23943" lon="0.31522">
        <ele>85</ele>
        <time>2015-09-15T13:19:27Z</time>
      </trkpt>
      <trkpt lat="45.23951" lon="0.31518">
        <ele>86</ele>
        <time>2015-09-15T13:19:36Z</time>
      </trkpt>
      <trkpt lat="45.23959" lon="0.31512">
        <ele>87</ele>
        <time>2015-09-15T13:19:46Z</time>
      </trkpt>
      <trkpt lat="45.23967" lon="0.31507">
        <ele>87</ele>
        <time>2015-09-15T13:19:55Z</time>
      </trkpt>
      <trkpt lat="45.23975" lon="0.31501">
        <ele>86</ele>
        <time>2015-09-15T13:20:04Z</time>
      </trkpt>
      <trkpt lat="45.23982" lon="0.31496">
        <ele>86</ele>
        <time>2015-09-15T13:20:12Z</time>
      </trkpt>
      <trkpt lat="45.2399" lon="0.31492">
        <ele>86</ele>
        <time>2015-09-15T13:20:19Z</time>
      </trkpt>
      <trkpt lat="45.23997" lon="0.31486">
        <ele>83</ele>
        <time>2015-09-15T13:20:24Z</time>
      </trkpt>
      <trkpt lat="45.24004" lon="0.31479">
        <ele>83</ele>
        <time>2015-09-15T13:20:31Z</time>
      </trkpt>
      <trkpt lat="45.24011" lon="0.31474">
        <ele>83</ele>
        <time>2015-09-15T13:20:39Z</time>
      </trkpt>
      <trkpt lat="45.24019" lon="0.31469">
        <ele>84</ele>
        <time>2015-09-15T13:20:48Z</time>
      </trkpt>
      <trkpt lat="45.24025" lon="0.31464">
        <ele>84</ele>
        <time>2015-09-15T13:20:55Z</time>
      </trkpt>
      <trkpt lat="45.24033" lon="0.31457">
        <ele>82</ele>
        <time>2015-09-15T13:21:02Z</time>
      </trkpt>
      <trkpt lat="45.2404" lon="0.31451">
        <ele>83</ele>
        <time>2015-09-15T13:21:09Z</time>
      </trkpt>
      <trkpt lat="45.24045" lon="0.31445">
        <ele>80</ele>
        <time>2015-09-15T13:21:17Z</time>
      </trkpt>
      <trkpt lat="45.24053" lon="0.3144">
        <ele>81</ele>
        <time>2015-09-15T13:21:27Z</time>
      </trkpt>
      <trkpt lat="45.24056" lon="0.31437">
        <ele>79</ele>
        <time>2015-09-15T13:21:32Z</time>
      </trkpt>
      <trkpt lat="45.24069" lon="0.31426">
        <ele>77</ele>
        <time>2015-09-15T13:21:37Z</time>
      </trkpt>
      <trkpt lat="45.24076" lon="0.31423">
        <ele>82</ele>
        <time>2015-09-15T13:21:47Z</time>
      </trkpt>
      <trkpt lat="45.24084" lon="0.31418">
        <ele>81</ele>
        <time>2015-09-15T13:21:52Z</time>
      </trkpt>
      <trkpt lat="45.24091" lon="0.31413">
        <ele>80</ele>
        <time>2015-09-15T13:21:59Z</time>
      </trkpt>
      <trkpt lat="45.24099" lon="0.3141">
        <ele>77</ele>
        <time>2015-09-15T13:22:05Z</time>
      </trkpt>
      <trkpt lat="45.24107" lon="0.31406">
        <ele>74</ele>
        <time>2015-09-15T13:22:11Z</time>
      </trkpt>
      <trkpt lat="45.24116" lon="0.31405">
        <ele>74</ele>
        <time>2015-09-15T13:22:19Z</time>
      </trkpt>
      <trkpt lat="45.24124" lon="0.31407">
        <ele>74</ele>
        <time>2015-09-15T13:22:27Z</time>
      </trkpt>
      <trkpt lat="45.24132" lon="0.31411">
        <ele>71</ele>
        <time>2015-09-15T13:22:34Z</time>
      </trkpt>
      <trkpt lat="45.2414" lon="0.31417">
        <ele>70</ele>
        <time>2015-09-15T13:22:41Z</time>
      </trkpt>
      <trkpt lat="45.24147" lon="0.31422">
        <ele>69</ele>
        <time>2015-09-15T13:22:48Z</time>
      </trkpt>
      <trkpt lat="45.24154" lon="0.31428">
        <ele>70</ele>
        <time>2015-09-15T13:22:55Z</time>
      </trkpt>
      <trkpt lat="45.24161" lon="0.31435">
        <ele>72</ele>
        <time>2015-09-15T13:23:04Z</time>
      </trkpt>
      <trkpt lat="45.24168" lon="0.31443">
        <ele>70</ele>
        <time>2015-09-15T13:23:11Z</time>
      </trkpt>
      <trkpt lat="45.24176" lon="0.31447">
        <ele>71</ele>
        <time>2015-09-15T13:23:19Z</time>
      </trkpt>
      <trkpt lat="45.24185" lon="0.31446">
        <ele>70</ele>
        <time>2015-09-15T13:24:24Z</time>
      </trkpt>
      <trkpt lat="45.24194" lon="0.31445">
        <ele>71</ele>
        <time>2015-09-15T13:25:06Z</time>
      </trkpt>
      <trkpt lat="45.24202" lon="0.31439">
        <ele>70</ele>
        <time>2015-09-15T13:25:21Z</time>
      </trkpt>
      <trkpt lat="45.24208" lon="0.3143">
        <ele>70</ele>
        <time>2015-09-15T13:25:35Z</time>
      </trkpt>
      <trkpt lat="45.24213" lon="0.31421">
        <ele>70</ele>
        <time>2015-09-15T13:25:45Z</time>
      </trkpt>
      <trkpt lat="45.24218" lon="0.31411">
        <ele>69</ele>
        <time>2015-09-15T13:25:53Z</time>
      </trkpt>
      <trkpt lat="45.24223" lon="0.31401">
        <ele>67</ele>
        <time>2015-09-15T13:26:03Z</time>
      </trkpt>
      <trkpt lat="45.24228" lon="0.31392">
        <ele>66</ele>
        <time>2015-09-15T13:26:13Z</time>
      </trkpt>
      <trkpt lat="45.24234" lon="0.31383">
        <ele>68</ele>
        <time>2015-09-15T13:26:23Z</time>
      </trkpt>
      <trkpt lat="45.2424" lon="0.31374">
        <ele>65</ele>
        <time>2015-09-15T13:26:32Z</time>
      </trkpt>
      <trkpt lat="45.24246" lon="0.31366">
        <ele>65</ele>
        <time>2015-09-15T13:26:56Z</time>
      </trkpt>
      <trkpt lat="45.24253" lon="0.31359">
        <ele>66</ele>
        <time>2015-09-15T13:27:05Z</time>
      </trkpt>
      <trkpt lat="45.24258" lon="0.3135">
        <ele>66</ele>
        <time>2015-09-15T13:27:13Z</time>
      </trkpt>
      <trkpt lat="45.24262" lon="0.3134">
        <ele>66</ele>
        <time>2015-09-15T13:27:22Z</time>
      </trkpt>
      <trkpt lat="45.24266" lon="0.31329">
        <ele>66</ele>
        <time>2015-09-15T13:27:30Z</time>
      </trkpt>
      <trkpt lat="45.24271" lon="0.31318">
        <ele>65</ele>
        <time>2015-09-15T13:27:38Z</time>
      </trkpt>
      <trkpt lat="45.24272" lon="0.31307">
        <ele>65</ele>
        <time>2015-09-15T13:27:46Z</time>
      </trkpt>
      <trkpt lat="45.24277" lon="0.31296">
        <ele>65</ele>
        <time>2015-09-15T13:27:54Z</time>
      </trkpt>
      <trkpt lat="45.24281" lon="0.31286">
        <ele>64</ele>
        <time>2015-09-15T13:28:02Z</time>
      </trkpt>
      <trkpt lat="45.24289" lon="0.31283">
        <ele>68</ele>
        <time>2015-09-15T13:28:15Z</time>
      </trkpt>
      <trkpt lat="45.24296" lon="0.31286">
        <ele>72</ele>
        <time>2015-09-15T13:28:27Z</time>
      </trkpt>
      <trkpt lat="45.24304" lon="0.31285">
        <ele>68</ele>
        <time>2015-09-15T13:28:33Z</time>
      </trkpt>
      <trkpt lat="45.24311" lon="0.31288">
        <ele>66</ele>
        <time>2015-09-15T13:28:38Z</time>
      </trkpt>
      <trkpt lat="45.24318" lon="0.31297">
        <ele>64</ele>
        <time>2015-09-15T13:28:44Z</time>
      </trkpt>
      <trkpt lat="45.24324" lon="0.313">
        <ele>65</ele>
        <time>2015-09-15T13:28:51Z</time>
      </trkpt>
      <trkpt lat="45.24332" lon="0.31307">
        <ele>63</ele>
        <time>2015-09-15T13:28:56Z</time>
      </trkpt>
      <trkpt lat="45.24339" lon="0.31314">
        <ele>68</ele>
        <time>2015-09-15T13:29:06Z</time>
      </trkpt>
      <trkpt lat="45.24347" lon="0.31316">
        <ele>67</ele>
        <time>2015-09-15T13:29:16Z</time>
      </trkpt>
      <trkpt lat="45.24356" lon="0.3132">
        <ele>72</ele>
        <time>2015-09-15T13:29:26Z</time>
      </trkpt>
      <trkpt lat="45.24364" lon="0.31321">
        <ele>71</ele>
        <time>2015-09-15T13:29:32Z</time>
      </trkpt>
      <trkpt lat="45.24371" lon="0.31326">
        <ele>76</ele>
        <time>2015-09-15T13:29:39Z</time>
      </trkpt>
      <trkpt lat="45.24379" lon="0.3133">
        <ele>78</ele>
        <time>2015-09-15T13:29:47Z</time>
      </trkpt>
      <trkpt lat="45.24388" lon="0.3133">
        <ele>82</ele>
        <time>2015-09-15T13:29:58Z</time>
      </trkpt>
      <trkpt lat="45.24394" lon="0.31329">
        <ele>83</ele>
        <time>2015-09-15T13:30:04Z</time>
      </trkpt>
      <trkpt lat="45.24404" lon="0.31324">
        <ele>82</ele>
        <time>2015-09-15T13:30:08Z</time>
      </trkpt>
      <trkpt lat="45.24413" lon="0.31324">
        <ele>86</ele>
        <time>2015-09-15T13:30:18Z</time>
      </trkpt>
      <trkpt lat="45.24421" lon="0.31322">
        <ele>86</ele>
        <time>2015-09-15T13:30:26Z</time>
      </trkpt>
      <trkpt lat="45.24428" lon="0.3132">
        <ele>86</ele>
        <time>2015-09-15T13:30:31Z</time>
      </trkpt>
      <trkpt lat="45.24435" lon="0.31312">
        <ele>83</ele>
        <time>2015-09-15T13:30:37Z</time>
      </trkpt>
      <trkpt lat="45.24441" lon="0.31313">
        <ele>81</ele>
        <time>2015-09-15T13:30:45Z</time>
      </trkpt>
      <trkpt lat="45.2445" lon="0.31313">
        <ele>77</ele>
        <time>2015-09-15T13:30:51Z</time>
      </trkpt>
      <trkpt lat="45.24457" lon="0.31313">
        <ele>79</ele>
        <time>2015-09-15T13:31:00Z</time>
      </trkpt>
      <trkpt lat="45.24471" lon="0.31312">
        <ele>70</ele>
        <time>2015-09-15T13:31:05Z</time>
      </trkpt>
      <trkpt lat="45.24478" lon="0.31309">
        <ele>69</ele>
        <time>2015-09-15T13:31:10Z</time>
      </trkpt>
      <trkpt lat="45.24484" lon="0.31307">
        <ele>74</ele>
        <time>2015-09-15T13:31:15Z</time>
      </trkpt>
      <trkpt lat="45.24492" lon="0.31297">
        <ele>70</ele>
        <time>2015-09-15T13:31:20Z</time>
      </trkpt>
      <trkpt lat="45.24498" lon="0.31298">
        <ele>71</ele>
        <time>2015-09-15T13:31:36Z</time>
      </trkpt>
      <trkpt lat="45.24512" lon="0.31297">
        <ele>60</ele>
        <time>2015-09-15T13:31:40Z</time>
      </trkpt>
      <trkpt lat="45.24519" lon="0.31302">
        <ele>54</ele>
        <time>2015-09-15T13:31:44Z</time>
      </trkpt>
      <trkpt lat="45.24528" lon="0.31293">
        <ele>56</ele>
        <time>2015-09-15T13:31:49Z</time>
      </trkpt>
      <trkpt lat="45.24536" lon="0.31286">
        <ele>59</ele>
        <time>2015-09-15T13:31:55Z</time>
      </trkpt>
      <trkpt lat="45.24542" lon="0.31288">
        <ele>63</ele>
        <time>2015-09-15T13:32:01Z</time>
      </trkpt>
      <trkpt lat="45.24552" lon="0.31284">
        <ele>63</ele>
        <time>2015-09-15T13:32:06Z</time>
      </trkpt>
      <trkpt lat="45.24557" lon="0.31278">
        <ele>64</ele>
        <time>2015-09-15T13:32:11Z</time>
      </trkpt>
      <trkpt lat="45.24563" lon="0.3127">
        <ele>62</ele>
        <time>2015-09-15T13:32:15Z</time>
      </trkpt>
      <trkpt lat="45.2457" lon="0.31264">
        <ele>65</ele>
        <time>2015-09-15T13:32:20Z</time>
      </trkpt>
      <trkpt lat="45.24576" lon="0.31256">
        <ele>68</ele>
        <time>2015-09-15T13:32:27Z</time>
      </trkpt>
      <trkpt lat="45.24582" lon="0.31247">
        <ele>70</ele>
        <time>2015-09-15T13:32:35Z</time>
      </trkpt>
      <trkpt lat="45.24587" lon="0.31238">
        <ele>69</ele>
        <time>2015-09-15T13:32:42Z</time>
      </trkpt>
      <trkpt lat="45.24593" lon="0.31229">
        <ele>72</ele>
        <time>2015-09-15T13:32:50Z</time>
      </trkpt>
      <trkpt lat="45.24599" lon="0.31221">
        <ele>71</ele>
        <time>2015-09-15T13:32:56Z</time>
      </trkpt>
      <trkpt lat="45.24604" lon="0.31211">
        <ele>71</ele>
        <time>2015-09-15T13:33:05Z</time>
      </trkpt>
      <trkpt lat="45.2461" lon="0.31202">
        <ele>69</ele>
        <time>2015-09-15T13:33:48Z</time>
      </trkpt>
      <trkpt lat="45.24614" lon="0.31195">
        <ele>71</ele>
        <time>2015-09-15T13:33:56Z</time>
      </trkpt>
      <trkpt lat="45.24619" lon="0.31186">
        <ele>70</ele>
        <time>2015-09-15T13:34:01Z</time>
      </trkpt>
      <trkpt lat="45.24626" lon="0.31177">
        <ele>69</ele>
        <time>2015-09-15T13:34:08Z</time>
      </trkpt>
      <trkpt lat="45.24632" lon="0.31169">
        <ele>70</ele>
        <time>2015-09-15T13:34:15Z</time>
      </trkpt>
      <trkpt lat="45.24638" lon="0.31161">
        <ele>73</ele>
        <time>2015-09-15T13:34:22Z</time>
      </trkpt>
      <trkpt lat="45.24644" lon="0.31153">
        <ele>77</ele>
        <time>2015-09-15T13:34:31Z</time>
      </trkpt>
      <trkpt lat="45.24651" lon="0.31144">
        <ele>78</ele>
        <time>2015-09-15T13:34:40Z</time>
      </trkpt>
      <trkpt lat="45.24655" lon="0.31135">
        <ele>82</ele>
        <time>2015-09-15T13:34:49Z</time>
      </trkpt>
      <trkpt lat="45.24662" lon="0.31127">
        <ele>82</ele>
        <time>2015-09-15T13:34:54Z</time>
      </trkpt>
      <trkpt lat="45.24667" lon="0.31119">
        <ele>81</ele>
        <time>2015-09-15T13:35:01Z</time>
      </trkpt>
      <trkpt lat="45.24674" lon="0.31111">
        <ele>84</ele>
        <time>2015-09-15T13:35:12Z</time>
      </trkpt>
      <trkpt lat="45.24682" lon="0.31108">
        <ele>86</ele>
        <time>2015-09-15T13:35:22Z</time>
      </trkpt>
      <trkpt lat="45.2469" lon="0.31104">
        <ele>86</ele>
        <time>2015-09-15T13:35:29Z</time>
      </trkpt>
      <trkpt lat="45.24699" lon="0.31104">
        <ele>86</ele>
        <time>2015-09-15T13:35:37Z</time>
      </trkpt>
      <trkpt lat="45.24707" lon="0.31107">
        <ele>86</ele>
        <time>2015-09-15T13:35:45Z</time>
      </trkpt>
      <trkpt lat="45.24714" lon="0.3111">
        <ele>87</ele>
        <time>2015-09-15T13:35:53Z</time>
      </trkpt>
      <trkpt lat="45.24722" lon="0.31106">
        <ele>88</ele>
        <time>2015-09-15T13:35:57Z</time>
      </trkpt>
      <trkpt lat="45.2473" lon="0.31106">
        <ele>89</ele>
        <time>2015-09-15T13:36:08Z</time>
      </trkpt>
      <trkpt lat="45.24737" lon="0.31099">
        <ele>90</ele>
        <time>2015-09-15T13:36:17Z</time>
      </trkpt>
      <trkpt lat="45.24742" lon="0.3109">
        <ele>89</ele>
        <time>2015-09-15T13:36:23Z</time>
      </trkpt>
      <trkpt lat="45.24745" lon="0.31079">
        <ele>90</ele>
        <time>2015-09-15T13:36:32Z</time>
      </trkpt>
      <trkpt lat="45.24748" lon="0.31068">
        <ele>91</ele>
        <time>2015-09-15T13:36:43Z</time>
      </trkpt>
      <trkpt lat="45.24752" lon="0.31061">
        <ele>91</ele>
        <time>2015-09-15T13:36:54Z</time>
      </trkpt>
      <trkpt lat="45.24755" lon="0.3105">
        <ele>89</ele>
        <time>2015-09-15T13:37:02Z</time>
      </trkpt>
      <trkpt lat="45.24757" lon="0.31038">
        <ele>91</ele>
        <time>2015-09-15T13:37:09Z</time>
      </trkpt>
      <trkpt lat="45.24758" lon="0.31027">
        <ele>92</ele>
        <time>2015-09-15T13:37:15Z</time>
      </trkpt>
      <trkpt lat="45.24756" lon="0.31015">
        <ele>93</ele>
        <time>2015-09-15T13:37:22Z</time>
      </trkpt>
      <trkpt lat="45.24754" lon="0.31003">
        <ele>94</ele>
        <time>2015-09-15T13:37:30Z</time>
      </trkpt>
      <trkpt lat="45.24755" lon="0.3099">
        <ele>97</ele>
        <time>2015-09-15T13:37:38Z</time>
      </trkpt>
      <trkpt lat="45.24756" lon="0.30981">
        <ele>97</ele>
        <time>2015-09-15T13:37:45Z</time>
      </trkpt>
      <trkpt lat="45.24757" lon="0.30972">
        <ele>98</ele>
        <time>2015-09-15T13:37:50Z</time>
      </trkpt>
      <trkpt lat="45.24761" lon="0.30961">
        <ele>94</ele>
        <time>2015-09-15T13:37:56Z</time>
      </trkpt>
      <trkpt lat="45.24763" lon="0.30949">
        <ele>99</ele>
        <time>2015-09-15T13:38:12Z</time>
      </trkpt>
      <trkpt lat="45.24768" lon="0.30938">
        <ele>104</ele>
        <time>2015-09-15T13:38:19Z</time>
      </trkpt>
      <trkpt lat="45.24772" lon="0.30929">
        <ele>104</ele>
        <time>2015-09-15T13:38:25Z</time>
      </trkpt>
      <trkpt lat="45.24775" lon="0.30919">
        <ele>105</ele>
        <time>2015-09-15T13:38:30Z</time>
      </trkpt>
      <trkpt lat="45.2478" lon="0.30912">
        <ele>104</ele>
        <time>2015-09-15T13:38:40Z</time>
      </trkpt>
      <trkpt lat="45.24784" lon="0.30901">
        <ele>103</ele>
        <time>2015-09-15T13:38:47Z</time>
      </trkpt>
      <trkpt lat="45.24786" lon="0.30889">
        <ele>107</ele>
        <time>2015-09-15T13:38:56Z</time>
      </trkpt>
      <trkpt lat="45.24789" lon="0.3088">
        <ele>109</ele>
        <time>2015-09-15T13:39:02Z</time>
      </trkpt>
      <trkpt lat="45.24793" lon="0.30869">
        <ele>107</ele>
        <time>2015-09-15T13:39:07Z</time>
      </trkpt>
      <trkpt lat="45.24797" lon="0.3086">
        <ele>107</ele>
        <time>2015-09-15T13:39:14Z</time>
      </trkpt>
      <trkpt lat="45.24794" lon="0.30849">
        <ele>111</ele>
        <time>2015-09-15T13:41:57Z</time>
      </trkpt>
      <trkpt lat="45.24799" lon="0.3084">
        <ele>113</ele>
        <time>2015-09-15T13:42:07Z</time>
      </trkpt>
      <trkpt lat="45.24807" lon="0.30839">
        <ele>115</ele>
        <time>2015-09-15T13:42:19Z</time>
      </trkpt>
      <trkpt lat="45.24814" lon="0.3084">
        <ele>114</ele>
        <time>2015-09-15T13:42:23Z</time>
      </trkpt>
      <trkpt lat="45.24823" lon="0.30837">
        <ele>113</ele>
        <time>2015-09-15T13:42:29Z</time>
      </trkpt>
      <trkpt lat="45.2483" lon="0.3083">
        <ele>112</ele>
        <time>2015-09-15T13:42:39Z</time>
      </trkpt>
      <trkpt lat="45.24834" lon="0.30823">
        <ele>113</ele>
        <time>2015-09-15T13:42:44Z</time>
      </trkpt>
      <trkpt lat="45.24841" lon="0.30816">
        <ele>109</ele>
        <time>2015-09-15T13:42:53Z</time>
      </trkpt>
      <trkpt lat="45.24848" lon="0.30813">
        <ele>107</ele>
        <time>2015-09-15T13:43:00Z</time>
      </trkpt>
      <trkpt lat="45.24857" lon="0.30818">
        <ele>109</ele>
        <time>2015-09-15T13:43:08Z</time>
      </trkpt>
      <trkpt lat="45.24865" lon="0.30818">
        <ele>108</ele>
        <time>2015-09-15T13:43:18Z</time>
      </trkpt>
      <trkpt lat="45.24873" lon="0.30824">
        <ele>110</ele>
        <time>2015-09-15T13:43:28Z</time>
      </trkpt>
      <trkpt lat="45.24878" lon="0.30829">
        <ele>108</ele>
        <time>2015-09-15T13:43:32Z</time>
      </trkpt>
      <trkpt lat="45.24884" lon="0.30837">
        <ele>103</ele>
        <time>2015-09-15T13:43:38Z</time>
      </trkpt>
      <trkpt lat="45.2489" lon="0.30845">
        <ele>103</ele>
        <time>2015-09-15T13:43:46Z</time>
      </trkpt>
      <trkpt lat="45.24898" lon="0.3085">
        <ele>104</ele>
        <time>2015-09-15T13:43:53Z</time>
      </trkpt>
      <trkpt lat="45.24905" lon="0.30857">
        <ele>101</ele>
        <time>2015-09-15T13:43:59Z</time>
      </trkpt>
      <trkpt lat="45.24911" lon="0.30864">
        <ele>102</ele>
        <time>2015-09-15T13:44:06Z</time>
      </trkpt>
      <trkpt lat="45.24919" lon="0.30869">
        <ele>103</ele>
        <time>2015-09-15T13:44:13Z</time>
      </trkpt>
      <trkpt lat="45.24927" lon="0.30873">
        <ele>104</ele>
        <time>2015-09-15T13:44:21Z</time>
      </trkpt>
      <trkpt lat="45.24934" lon="0.30879">
        <ele>105</ele>
        <time>2015-09-15T13:44:28Z</time>
      </trkpt>
      <trkpt lat="45.24941" lon="0.30884">
        <ele>105</ele>
        <time>2015-09-15T13:44:35Z</time>
      </trkpt>
      <trkpt lat="45.24948" lon="0.3089">
        <ele>105</ele>
        <time>2015-09-15T13:44:42Z</time>
      </trkpt>
      <trkpt lat="45.24956" lon="0.30894">
        <ele>105</ele>
        <time>2015-09-15T13:44:52Z</time>
      </trkpt>
      <trkpt lat="45.24962" lon="0.30902">
        <ele>105</ele>
        <time>2015-09-15T13:44:57Z</time>
      </trkpt>
      <trkpt lat="45.24969" lon="0.30909">
        <ele>108</ele>
        <time>2015-09-15T13:45:08Z</time>
      </trkpt>
      <trkpt lat="45.24977" lon="0.30914">
        <ele>108</ele>
        <time>2015-09-15T13:45:18Z</time>
      </trkpt>
      <trkpt lat="45.24984" lon="0.30919">
        <ele>104</ele>
        <time>2015-09-15T13:45:29Z</time>
      </trkpt>
      <trkpt lat="45.2499" lon="0.30926">
        <ele>101</ele>
        <time>2015-09-15T13:45:40Z</time>
      </trkpt>
      <trkpt lat="45.24997" lon="0.30931">
        <ele>103</ele>
        <time>2015-09-15T13:45:46Z</time>
      </trkpt>
      <trkpt lat="45.25005" lon="0.3094">
        <ele>100</ele>
        <time>2015-09-15T13:45:50Z</time>
      </trkpt>
      <trkpt lat="45.25012" lon="0.30944">
        <ele>102</ele>
        <time>2015-09-15T13:46:06Z</time>
      </trkpt>
      <trkpt lat="45.25022" lon="0.30935">
        <ele>101</ele>
        <time>2015-09-15T13:46:11Z</time>
      </trkpt>
      <trkpt lat="45.25028" lon="0.30926">
        <ele>101</ele>
        <time>2015-09-15T13:46:15Z</time>
      </trkpt>
      <trkpt lat="45.25035" lon="0.3092">
        <ele>104</ele>
        <time>2015-09-15T13:46:26Z</time>
      </trkpt>
      <trkpt lat="45.25042" lon="0.30915">
        <ele>108</ele>
        <time>2015-09-15T13:47:13Z</time>
      </trkpt>
      <trkpt lat="45.25048" lon="0.30907">
        <ele>107</ele>
        <time>2015-09-15T13:47:29Z</time>
      </trkpt>
      <trkpt lat="45.25051" lon="0.30896">
        <ele>106</ele>
        <time>2015-09-15T13:47:52Z</time>
      </trkpt>
      <trkpt lat="45.25054" lon="0.30886">
        <ele>106</ele>
        <time>2015-09-15T13:47:59Z</time>
      </trkpt>
      <trkpt lat="45.25054" lon="0.30873">
        <ele>108</ele>
        <time>2015-09-15T13:48:06Z</time>
      </trkpt>
      <trkpt lat="45.25054" lon="0.30862">
        <ele>108</ele>
        <time>2015-09-15T13:48:22Z</time>
      </trkpt>
      <trkpt lat="45.25054" lon="0.30849">
        <ele>104</ele>
        <time>2015-09-15T13:48:28Z</time>
      </trkpt>
      <trkpt lat="45.25054" lon="0.30837">
        <ele>101</ele>
        <time>2015-09-15T13:48:33Z</time>
      </trkpt>
      <trkpt lat="45.25058" lon="0.30826">
        <ele>99</ele>
        <time>2015-09-15T13:48:38Z</time>
      </trkpt>
      <trkpt lat="45.25059" lon="0.30815">
        <ele>100</ele>
        <time>2015-09-15T13:48:46Z</time>
      </trkpt>
      <trkpt lat="45.25064" lon="0.30805">
        <ele>100</ele>
        <time>2015-09-15T13:48:53Z</time>
      </trkpt>
      <trkpt lat="45.25065" lon="0.30794">
        <ele>99</ele>
        <time>2015-09-15T13:48:58Z</time>
      </trkpt>
      <trkpt lat="45.25063" lon="0.30782">
        <ele>97</ele>
        <time>2015-09-15T13:49:03Z</time>
      </trkpt>
      <trkpt lat="45.25062" lon="0.30771">
        <ele>91</ele>
        <time>2015-09-15T13:49:08Z</time>
      </trkpt>
      <trkpt lat="45.25064" lon="0.30759">
        <ele>92</ele>
        <time>2015-09-15T13:49:14Z</time>
      </trkpt>
      <trkpt lat="45.2506" lon="0.30748">
        <ele>92</ele>
        <time>2015-09-15T13:49:21Z</time>
      </trkpt>
      <trkpt lat="45.25058" lon="0.30736">
        <ele>92</ele>
        <time>2015-09-15T13:49:32Z</time>
      </trkpt>
      <trkpt lat="45.25056" lon="0.30725">
        <ele>91</ele>
        <time>2015-09-15T13:49:41Z</time>
      </trkpt>
      <trkpt lat="45.25057" lon="0.30713">
        <ele>90</ele>
        <time>2015-09-15T13:50:44Z</time>
      </trkpt>
      <trkpt lat="45.25065" lon="0.30709">
        <ele>89</ele>
        <time>2015-09-15T13:50:54Z</time>
      </trkpt>
      <trkpt lat="45.25073" lon="0.30709">
        <ele>94</ele>
        <time>2015-09-15T13:51:09Z</time>
      </trkpt>
      <trkpt lat="45.2508" lon="0.30716">
        <ele>94</ele>
        <time>2015-09-15T13:51:20Z</time>
      </trkpt>
      <trkpt lat="45.25087" lon="0.30721">
        <ele>99</ele>
        <time>2015-09-15T13:51:33Z</time>
      </trkpt>
      <trkpt lat="45.25094" lon="0.30726">
        <ele>99</ele>
        <time>2015-09-15T13:51:41Z</time>
      </trkpt>
      <trkpt lat="45.25102" lon="0.3073">
        <ele>95</ele>
        <time>2015-09-15T13:51:49Z</time>
      </trkpt>
      <trkpt lat="45.25111" lon="0.3073">
        <ele>95</ele>
        <time>2015-09-15T13:51:56Z</time>
      </trkpt>
      <trkpt lat="45.25118" lon="0.30731">
        <ele>95</ele>
        <time>2015-09-15T13:52:08Z</time>
      </trkpt>
      <trkpt lat="45.25127" lon="0.30734">
        <ele>93</ele>
        <time>2015-09-15T13:52:14Z</time>
      </trkpt>
      <trkpt lat="45.25134" lon="0.30731">
        <ele>92</ele>
        <time>2015-09-15T13:52:52Z</time>
      </trkpt>
      <trkpt lat="45.25143" lon="0.30734">
        <ele>92</ele>
        <time>2015-09-15T13:53:05Z</time>
      </trkpt>
      <trkpt lat="45.25148" lon="0.30726">
        <ele>91</ele>
        <time>2015-09-15T13:53:25Z</time>
      </trkpt>
      <trkpt lat="45.25153" lon="0.30716">
        <ele>95</ele>
        <time>2015-09-15T13:53:37Z</time>
      </trkpt>
      <trkpt lat="45.25158" lon="0.30706">
        <ele>96</ele>
        <time>2015-09-15T13:54:32Z</time>
      </trkpt>
      <trkpt lat="45.25164" lon="0.30697">
        <ele>93</ele>
        <time>2015-09-15T13:54:46Z</time>
      </trkpt>
      <trkpt lat="45.25173" lon="0.30698">
        <ele>92</ele>
        <time>2015-09-15T13:54:55Z</time>
      </trkpt>
      <trkpt lat="45.25177" lon="0.30688">
        <ele>90</ele>
        <time>2015-09-15T13:55:07Z</time>
      </trkpt>
      <trkpt lat="45.25182" lon="0.30679">
        <ele>93</ele>
        <time>2015-09-15T13:55:13Z</time>
      </trkpt>
      <trkpt lat="45.25184" lon="0.30667">
        <ele>92</ele>
        <time>2015-09-15T13:55:20Z</time>
      </trkpt>
      <trkpt lat="45.25187" lon="0.30655">
        <ele>92</ele>
        <time>2015-09-15T13:55:25Z</time>
      </trkpt>
      <trkpt lat="45.25189" lon="0.30646">
        <ele>92</ele>
        <time>2015-09-15T13:55:39Z</time>
      </trkpt>
      <trkpt lat="45.25192" lon="0.30631">
        <ele>85</ele>
        <time>2015-09-15T13:55:44Z</time>
      </trkpt>
      <trkpt lat="45.25192" lon="0.3062">
        <ele>86</ele>
        <time>2015-09-15T13:55:51Z</time>
      </trkpt>
      <trkpt lat="45.25191" lon="0.30608">
        <ele>85</ele>
        <time>2015-09-15T13:55:57Z</time>
      </trkpt>
      <trkpt lat="45.2519" lon="0.30598">
        <ele>87</ele>
        <time>2015-09-15T13:56:02Z</time>
      </trkpt>
      <trkpt lat="45.25194" lon="0.30587">
        <ele>88</ele>
        <time>2015-09-15T13:56:08Z</time>
      </trkpt>
      <trkpt lat="45.25195" lon="0.30574">
        <ele>89</ele>
        <time>2015-09-15T13:56:13Z</time>
      </trkpt>
      <trkpt lat="45.25197" lon="0.30562">
        <ele>93</ele>
        <time>2015-09-15T13:56:24Z</time>
      </trkpt>
      <trkpt lat="45.25198" lon="0.3055">
        <ele>96</ele>
        <time>2015-09-15T13:56:32Z</time>
      </trkpt>
      <trkpt lat="45.25196" lon="0.30538">
        <ele>96</ele>
        <time>2015-09-15T13:56:39Z</time>
      </trkpt>
      <trkpt lat="45.25196" lon="0.30526">
        <ele>92</ele>
        <time>2015-09-15T13:56:45Z</time>
      </trkpt>
      <trkpt lat="45.25197" lon="0.30516">
        <ele>93</ele>
        <time>2015-09-15T13:56:50Z</time>
      </trkpt>
      <trkpt lat="45.25201" lon="0.30504">
        <ele>93</ele>
        <time>2015-09-15T13:56:55Z</time>
      </trkpt>
      <trkpt lat="45.25203" lon="0.30492">
        <ele>98</ele>
        <time>2015-09-15T13:57:04Z</time>
      </trkpt>
      <trkpt lat="45.25199" lon="0.30481">
        <ele>99</ele>
        <time>2015-09-15T13:57:13Z</time>
      </trkpt>
      <trkpt lat="45.25199" lon="0.30468">
        <ele>96</ele>
        <time>2015-09-15T13:57:25Z</time>
      </trkpt>
      <trkpt lat="45.25202" lon="0.30458">
        <ele>99</ele>
        <time>2015-09-15T13:57:45Z</time>
      </trkpt>
      <trkpt lat="45.25206" lon="0.30449">
        <ele>102</ele>
        <time>2015-09-15T13:57:50Z</time>
      </trkpt>
      <trkpt lat="45.25213" lon="0.3044">
        <ele>103</ele>
        <time>2015-09-15T13:57:56Z</time>
      </trkpt>
      <trkpt lat="45.25216" lon="0.30431">
        <ele>104</ele>
        <time>2015-09-15T13:58:01Z</time>
      </trkpt>
      <trkpt lat="45.2522" lon="0.3042">
        <ele>102</ele>
        <time>2015-09-15T13:58:10Z</time>
      </trkpt>
      <trkpt lat="45.25225" lon="0.30412">
        <ele>99</ele>
        <time>2015-09-15T13:58:16Z</time>
      </trkpt>
      <trkpt lat="45.25232" lon="0.30407">
        <ele>99</ele>
        <time>2015-09-15T13:58:26Z</time>
      </trkpt>
      <trkpt lat="45.25237" lon="0.30398">
        <ele>97</ele>
        <time>2015-09-15T13:58:33Z</time>
      </trkpt>
      <trkpt lat="45.25244" lon="0.3039">
        <ele>101</ele>
        <time>2015-09-15T13:58:41Z</time>
      </trkpt>
      <trkpt lat="45.25252" lon="0.30387">
        <ele>105</ele>
        <time>2015-09-15T13:58:50Z</time>
      </trkpt>
      <trkpt lat="45.25259" lon="0.30381">
        <ele>100</ele>
        <time>2015-09-15T13:58:57Z</time>
      </trkpt>
      <trkpt lat="45.25266" lon="0.30374">
        <ele>105</ele>
        <time>2015-09-15T13:59:06Z</time>
      </trkpt>
      <trkpt lat="45.25275" lon="0.30371">
        <ele>95</ele>
        <time>2015-09-15T13:59:12Z</time>
      </trkpt>
      <trkpt lat="45.25283" lon="0.3037">
        <ele>95</ele>
        <time>2015-09-15T13:59:18Z</time>
      </trkpt>
      <trkpt lat="45.2529" lon="0.3037">
        <ele>94</ele>
        <time>2015-09-15T13:59:26Z</time>
      </trkpt>
      <trkpt lat="45.25298" lon="0.30366">
        <ele>95</ele>
        <time>2015-09-15T13:59:33Z</time>
      </trkpt>
      <trkpt lat="45.25307" lon="0.30357">
        <ele>92</ele>
        <time>2015-09-15T13:59:37Z</time>
      </trkpt>
      <trkpt lat="45.25315" lon="0.30357">
        <ele>94</ele>
        <time>2015-09-15T13:59:43Z</time>
      </trkpt>
      <trkpt lat="45.25324" lon="0.30354">
        <ele>95</ele>
        <time>2015-09-15T13:59:52Z</time>
      </trkpt>
      <trkpt lat="45.25333" lon="0.30348">
        <ele>89</ele>
        <time>2015-09-15T13:59:56Z</time>
      </trkpt>
      <trkpt lat="45.25342" lon="0.30344">
        <ele>87</ele>
        <time>2015-09-15T14:00:03Z</time>
      </trkpt>
      <trkpt lat="45.25351" lon="0.30345">
        <ele>87</ele>
        <time>2015-09-15T14:00:11Z</time>
      </trkpt>
      <trkpt lat="45.2536" lon="0.30344">
        <ele>85</ele>
        <time>2015-09-15T14:00:18Z</time>
      </trkpt>
      <trkpt lat="45.2537" lon="0.30344">
        <ele>86</ele>
        <time>2015-09-15T14:00:23Z</time>
      </trkpt>
      <trkpt lat="45.25378" lon="0.30344">
        <ele>83</ele>
        <time>2015-09-15T14:00:29Z</time>
      </trkpt>
      <trkpt lat="45.25387" lon="0.30344">
        <ele>84</ele>
        <time>2015-09-15T14:00:35Z</time>
      </trkpt>
      <trkpt lat="45.25395" lon="0.30346">
        <ele>82</ele>
        <time>2015-09-15T14:00:42Z</time>
      </trkpt>
      <trkpt lat="45.25402" lon="0.30349">
        <ele>84</ele>
        <time>2015-09-15T14:00:48Z</time>
      </trkpt>
      <trkpt lat="45.25411" lon="0.30353">
        <ele>83</ele>
        <time>2015-09-15T14:00:56Z</time>
      </trkpt>
      <trkpt lat="45.2542" lon="0.30354">
        <ele>82</ele>
        <time>2015-09-15T14:01:02Z</time>
      </trkpt>
      <trkpt lat="45.25427" lon="0.3036">
        <ele>82</ele>
        <time>2015-09-15T14:01:09Z</time>
      </trkpt>
      <trkpt lat="45.25435" lon="0.30366">
        <ele>83</ele>
        <time>2015-09-15T14:01:17Z</time>
      </trkpt>
      <trkpt lat="45.25442" lon="0.30373">
        <ele>80</ele>
        <time>2015-09-15T14:01:24Z</time>
      </trkpt>
      <trkpt lat="45.25445" lon="0.30384">
        <ele>78</ele>
        <time>2015-09-15T14:01:31Z</time>
      </trkpt>
      <trkpt lat="45.25445" lon="0.30395">
        <ele>81</ele>
        <time>2015-09-15T14:01:38Z</time>
      </trkpt>
      <trkpt lat="45.25451" lon="0.30404">
        <ele>82</ele>
        <time>2015-09-15T14:01:44Z</time>
      </trkpt>
      <trkpt lat="45.25456" lon="0.30415">
        <ele>84</ele>
        <time>2015-09-15T14:01:52Z</time>
      </trkpt>
      <trkpt lat="45.25463" lon="0.3042">
        <ele>88</ele>
        <time>2015-09-15T14:01:59Z</time>
      </trkpt>
      <trkpt lat="45.2547" lon="0.30429">
        <ele>87</ele>
        <time>2015-09-15T14:02:06Z</time>
      </trkpt>
      <trkpt lat="45.25476" lon="0.30438">
        <ele>83</ele>
        <time>2015-09-15T14:02:13Z</time>
      </trkpt>
      <trkpt lat="45.25482" lon="0.30446">
        <ele>82</ele>
        <time>2015-09-15T14:02:20Z</time>
      </trkpt>
      <trkpt lat="45.25487" lon="0.30456">
        <ele>81</ele>
        <time>2015-09-15T14:02:27Z</time>
      </trkpt>
      <trkpt lat="45.25494" lon="0.30462">
        <ele>81</ele>
        <time>2015-09-15T14:02:32Z</time>
      </trkpt>
      <trkpt lat="45.25496" lon="0.30474">
        <ele>80</ele>
        <time>2015-09-15T14:02:39Z</time>
      </trkpt>
      <trkpt lat="45.255" lon="0.30482">
        <ele>78</ele>
        <time>2015-09-15T14:02:45Z</time>
      </trkpt>
      <trkpt lat="45.25503" lon="0.30493">
        <ele>80</ele>
        <time>2015-09-15T14:02:51Z</time>
      </trkpt>
      <trkpt lat="45.25509" lon="0.30502">
        <ele>80</ele>
        <time>2015-09-15T14:02:58Z</time>
      </trkpt>
      <trkpt lat="45.25515" lon="0.3051">
        <ele>79</ele>
        <time>2015-09-15T14:03:06Z</time>
      </trkpt>
      <trkpt lat="45.2552" lon="0.3052">
        <ele>78</ele>
        <time>2015-09-15T14:03:13Z</time>
      </trkpt>
      <trkpt lat="45.25526" lon="0.30529">
        <ele>83</ele>
        <time>2015-09-15T14:03:23Z</time>
      </trkpt>
      <trkpt lat="45.2553" lon="0.30538">
        <ele>84</ele>
        <time>2015-09-15T14:03:28Z</time>
      </trkpt>
      <trkpt lat="45.25534" lon="0.30547">
        <ele>83</ele>
        <time>2015-09-15T14:03:34Z</time>
      </trkpt>
      <trkpt lat="45.2554" lon="0.30556">
        <ele>79</ele>
        <time>2015-09-15T14:03:40Z</time>
      </trkpt>
      <trkpt lat="45.25545" lon="0.30564">
        <ele>76</ele>
        <time>2015-09-15T14:03:46Z</time>
      </trkpt>
      <trkpt lat="45.25551" lon="0.30574">
        <ele>74</ele>
        <time>2015-09-15T14:03:53Z</time>
      </trkpt>
      <trkpt lat="45.25558" lon="0.30582">
        <ele>76</ele>
        <time>2015-09-15T14:04:01Z</time>
      </trkpt>
      <trkpt lat="45.25565" lon="0.30586">
        <ele>79</ele>
        <time>2015-09-15T14:04:07Z</time>
      </trkpt>
      <trkpt lat="45.25573" lon="0.30592">
        <ele>75</ele>
        <time>2015-09-15T14:04:13Z</time>
      </trkpt>
      <trkpt lat="45.2558" lon="0.30599">
        <ele>75</ele>
        <time>2015-09-15T14:04:20Z</time>
      </trkpt>
      <trkpt lat="45.25587" lon="0.30607">
        <ele>75</ele>
        <time>2015-09-15T14:04:29Z</time>
      </trkpt>
      <trkpt lat="45.25594" lon="0.30611">
        <ele>75</ele>
        <time>2015-09-15T14:04:34Z</time>
      </trkpt>
      <trkpt lat="45.25601" lon="0.30616">
        <ele>73</ele>
        <time>2015-09-15T14:04:40Z</time>
      </trkpt>
      <trkpt lat="45.25608" lon="0.30622">
        <ele>68</ele>
        <time>2015-09-15T14:04:47Z</time>
      </trkpt>
      <trkpt lat="45.25613" lon="0.30633">
        <ele>70</ele>
        <time>2015-09-15T14:05:11Z</time>
      </trkpt>
      <trkpt lat="45.2561" lon="0.30643">
        <ele>72</ele>
        <time>2015-09-15T14:05:23Z</time>
      </trkpt>
      <trkpt lat="45.25604" lon="0.30651">
        <ele>73</ele>
        <time>2015-09-15T14:05:30Z</time>
      </trkpt>
      <trkpt lat="45.25598" lon="0.30657">
        <ele>75</ele>
        <time>2015-09-15T14:05:41Z</time>
      </trkpt>
      <trkpt lat="45.25593" lon="0.30667">
        <ele>72</ele>
        <time>2015-09-15T14:05:46Z</time>
      </trkpt>
      <trkpt lat="45.25593" lon="0.30678">
        <ele>70</ele>
        <time>2015-09-15T14:05:52Z</time>
      </trkpt>
      <trkpt lat="45.25598" lon="0.30687">
        <ele>67</ele>
        <time>2015-09-15T14:05:57Z</time>
      </trkpt>
      <trkpt lat="45.25606" lon="0.30694">
        <ele>65</ele>
        <time>2015-09-15T14:06:04Z</time>
      </trkpt>
      <trkpt lat="45.25613" lon="0.30702">
        <ele>64</ele>
        <time>2015-09-15T14:06:10Z</time>
      </trkpt>
      <trkpt lat="45.2562" lon="0.30709">
        <ele>64</ele>
        <time>2015-09-15T14:06:17Z</time>
      </trkpt>
      <trkpt lat="45.25627" lon="0.30716">
        <ele>63</ele>
        <time>2015-09-15T14:06:25Z</time>
      </trkpt>
      <trkpt lat="45.25634" lon="0.3072">
        <ele>64</ele>
        <time>2015-09-15T14:06:30Z</time>
      </trkpt>
      <trkpt lat="45.25642" lon="0.30723">
        <ele>62</ele>
        <time>2015-09-15T14:06:36Z</time>
      </trkpt>
      <trkpt lat="45.2565" lon="0.30729">
        <ele>63</ele>
        <time>2015-09-15T14:06:42Z</time>
      </trkpt>
      <trkpt lat="45.25657" lon="0.30734">
        <ele>62</ele>
        <time>2015-09-15T14:06:49Z</time>
      </trkpt>
      <trkpt lat="45.25665" lon="0.3074">
        <ele>62</ele>
        <time>2015-09-15T14:06:57Z</time>
      </trkpt>
      <trkpt lat="45.25671" lon="0.30747">
        <ele>63</ele>
        <time>2015-09-15T14:07:05Z</time>
      </trkpt>
      <trkpt lat="45.2568" lon="0.30751">
        <ele>63</ele>
        <time>2015-09-15T14:07:11Z</time>
      </trkpt>
      <trkpt lat="45.25687" lon="0.30759">
        <ele>62</ele>
        <time>2015-09-15T14:07:19Z</time>
      </trkpt>
      <trkpt lat="45.25693" lon="0.30762">
        <ele>61</ele>
        <time>2015-09-15T14:07:25Z</time>
      </trkpt>
      <trkpt lat="45.257" lon="0.30768">
        <ele>63</ele>
        <time>2015-09-15T14:07:33Z</time>
      </trkpt>
      <trkpt lat="45.25709" lon="0.30772">
        <ele>62</ele>
        <time>2015-09-15T14:07:39Z</time>
      </trkpt>
      <trkpt lat="45.25717" lon="0.30777">
        <ele>62</ele>
        <time>2015-09-15T14:07:46Z</time>
      </trkpt>
      <trkpt lat="45.25725" lon="0.30783">
        <ele>61</ele>
        <time>2015-09-15T14:07:54Z</time>
      </trkpt>
      <trkpt lat="45.25732" lon="0.30788">
        <ele>61</ele>
        <time>2015-09-15T14:08:00Z</time>
      </trkpt>
      <trkpt lat="45.25739" lon="0.30794">
        <ele>61</ele>
        <time>2015-09-15T14:08:07Z</time>
      </trkpt>
      <trkpt lat="45.25745" lon="0.30799">
        <ele>61</ele>
        <time>2015-09-15T14:08:13Z</time>
      </trkpt>
      <trkpt lat="45.25753" lon="0.30804">
        <ele>62</ele>
        <time>2015-09-15T14:08:20Z</time>
      </trkpt>
      <trkpt lat="45.25761" lon="0.30809">
        <ele>63</ele>
        <time>2015-09-15T14:08:27Z</time>
      </trkpt>
      <trkpt lat="45.25768" lon="0.30815">
        <ele>63</ele>
        <time>2015-09-15T14:08:34Z</time>
      </trkpt>
      <trkpt lat="45.25776" lon="0.30816">
        <ele>61</ele>
        <time>2015-09-15T14:08:40Z</time>
      </trkpt>
      <trkpt lat="45.25784" lon="0.3082">
        <ele>62</ele>
        <time>2015-09-15T14:08:47Z</time>
      </trkpt>
      <trkpt lat="45.25791" lon="0.30827">
        <ele>64</ele>
        <time>2015-09-15T14:08:55Z</time>
      </trkpt>
      <trkpt lat="45.25796" lon="0.30836">
        <ele>63</ele>
        <time>2015-09-15T14:09:04Z</time>
      </trkpt>
      <trkpt lat="45.25802" lon="0.30844">
        <ele>65</ele>
        <time>2015-09-15T14:09:10Z</time>
      </trkpt>
      <trkpt lat="45.25811" lon="0.30848">
        <ele>62</ele>
        <time>2015-09-15T14:09:17Z</time>
      </trkpt>
      <trkpt lat="45.25819" lon="0.30852">
        <ele>59</ele>
        <time>2015-09-15T14:09:24Z</time>
      </trkpt>
      <trkpt lat="45.25827" lon="0.30856">
        <ele>58</ele>
        <time>2015-09-15T14:09:30Z</time>
      </trkpt>
      <trkpt lat="45.25834" lon="0.30863">
        <ele>60</ele>
        <time>2015-09-15T14:09:37Z</time>
      </trkpt>
      <trkpt lat="45.25837" lon="0.30874">
        <ele>59</ele>
        <time>2015-09-15T14:09:45Z</time>
      </trkpt>
      <trkpt lat="45.25843" lon="0.30883">
        <ele>57</ele>
        <time>2015-09-15T14:09:53Z</time>
      </trkpt>
      <trkpt lat="45.2584" lon="0.30894">
        <ele>59</ele>
        <time>2015-09-15T14:09:58Z</time>
      </trkpt>
      <trkpt lat="45.25846" lon="0.30902">
        <ele>57</ele>
        <time>2015-09-15T14:10:04Z</time>
      </trkpt>
      <trkpt lat="45.2585" lon="0.30912">
        <ele>58</ele>
        <time>2015-09-15T14:10:10Z</time>
      </trkpt>
      <trkpt lat="45.25851" lon="0.30923">
        <ele>59</ele>
        <time>2015-09-15T14:10:18Z</time>
      </trkpt>
      <trkpt lat="45.25856" lon="0.30932">
        <ele>60</ele>
        <time>2015-09-15T14:10:26Z</time>
      </trkpt>
      <trkpt lat="45.25862" lon="0.3094">
        <ele>58</ele>
        <time>2015-09-15T14:10:30Z</time>
      </trkpt>
      <trkpt lat="45.25868" lon="0.30946">
        <ele>60</ele>
        <time>2015-09-15T14:10:38Z</time>
      </trkpt>
      <trkpt lat="45.25874" lon="0.30955">
        <ele>59</ele>
        <time>2015-09-15T14:10:45Z</time>
      </trkpt>
      <trkpt lat="45.25883" lon="0.30958">
        <ele>60</ele>
        <time>2015-09-15T14:10:53Z</time>
      </trkpt>
      <trkpt lat="45.25888" lon="0.30966">
        <ele>61</ele>
        <time>2015-09-15T14:11:00Z</time>
      </trkpt>
      <trkpt lat="45.25896" lon="0.30973">
        <ele>58</ele>
        <time>2015-09-15T14:11:08Z</time>
      </trkpt>
      <trkpt lat="45.25903" lon="0.30978">
        <ele>56</ele>
        <time>2015-09-15T14:11:13Z</time>
      </trkpt>
      <trkpt lat="45.2591" lon="0.30986">
        <ele>57</ele>
        <time>2015-09-15T14:11:20Z</time>
      </trkpt>
      <trkpt lat="45.25916" lon="0.30995">
        <ele>58</ele>
        <time>2015-09-15T14:11:26Z</time>
      </trkpt>
      <trkpt lat="45.25922" lon="0.31001">
        <ele>57</ele>
        <time>2015-09-15T14:11:34Z</time>
      </trkpt>
      <trkpt lat="45.25928" lon="0.3101">
        <ele>57</ele>
        <time>2015-09-15T14:11:40Z</time>
      </trkpt>
      <trkpt lat="45.25934" lon="0.31017">
        <ele>59</ele>
        <time>2015-09-15T14:11:47Z</time>
      </trkpt>
      <trkpt lat="45.25942" lon="0.31024">
        <ele>59</ele>
        <time>2015-09-15T14:11:59Z</time>
      </trkpt>
      <trkpt lat="45.25949" lon="0.3103">
        <ele>58</ele>
        <time>2015-09-15T14:12:05Z</time>
      </trkpt>
      <trkpt lat="45.25955" lon="0.31039">
        <ele>58</ele>
        <time>2015-09-15T14:12:11Z</time>
      </trkpt>
      <trkpt lat="45.25961" lon="0.31047">
        <ele>55</ele>
        <time>2015-09-15T14:12:16Z</time>
      </trkpt>
      <trkpt lat="45.25968" lon="0.31052">
        <ele>59</ele>
        <time>2015-09-15T14:12:22Z</time>
      </trkpt>
      <trkpt lat="45.25975" lon="0.31059">
        <ele>61</ele>
        <time>2015-09-15T14:12:31Z</time>
      </trkpt>
      <trkpt lat="45.25982" lon="0.31066">
        <ele>58</ele>
        <time>2015-09-15T14:12:36Z</time>
      </trkpt>
      <trkpt lat="45.25989" lon="0.31072">
        <ele>60</ele>
        <time>2015-09-15T14:12:43Z</time>
      </trkpt>
      <trkpt lat="45.25996" lon="0.31077">
        <ele>64</ele>
        <time>2015-09-15T14:12:50Z</time>
      </trkpt>
      <trkpt lat="45.26002" lon="0.31085">
        <ele>64</ele>
        <time>2015-09-15T14:12:57Z</time>
      </trkpt>
      <trkpt lat="45.26009" lon="0.31092">
        <ele>64</ele>
        <time>2015-09-15T14:13:03Z</time>
      </trkpt>
      <trkpt lat="45.26016" lon="0.31097">
        <ele>64</ele>
        <time>2015-09-15T14:13:09Z</time>
      </trkpt>
      <trkpt lat="45.26025" lon="0.31102">
        <ele>63</ele>
        <time>2015-09-15T14:13:14Z</time>
      </trkpt>
      <trkpt lat="45.26032" lon="0.31107">
        <ele>61</ele>
        <time>2015-09-15T14:13:19Z</time>
      </trkpt>
      <trkpt lat="45.26038" lon="0.31112">
        <ele>61</ele>
        <time>2015-09-15T14:13:24Z</time>
      </trkpt>
      <trkpt lat="45.26046" lon="0.31117">
        <ele>60</ele>
        <time>2015-09-15T14:13:29Z</time>
      </trkpt>
      <trkpt lat="45.26052" lon="0.31123">
        <ele>59</ele>
        <time>2015-09-15T14:13:36Z</time>
      </trkpt>
      <trkpt lat="45.2606" lon="0.31128">
        <ele>60</ele>
        <time>2015-09-15T14:13:42Z</time>
      </trkpt>
      <trkpt lat="45.26067" lon="0.31136">
        <ele>59</ele>
        <time>2015-09-15T14:13:49Z</time>
      </trkpt>
      <trkpt lat="45.26071" lon="0.31147">
        <ele>59</ele>
        <time>2015-09-15T14:13:56Z</time>
      </trkpt>
      <trkpt lat="45.26077" lon="0.31155">
        <ele>57</ele>
        <time>2015-09-15T14:14:03Z</time>
      </trkpt>
      <trkpt lat="45.26085" lon="0.3116">
        <ele>57</ele>
        <time>2015-09-15T14:14:08Z</time>
      </trkpt>
      <trkpt lat="45.26092" lon="0.31169">
        <ele>55</ele>
        <time>2015-09-15T14:14:14Z</time>
      </trkpt>
      <trkpt lat="45.26097" lon="0.31178">
        <ele>57</ele>
        <time>2015-09-15T14:14:22Z</time>
      </trkpt>
      <trkpt lat="45.26102" lon="0.31187">
        <ele>53</ele>
        <time>2015-09-15T14:14:27Z</time>
      </trkpt>
      <trkpt lat="45.26106" lon="0.31197">
        <ele>55</ele>
        <time>2015-09-15T14:14:34Z</time>
      </trkpt>
      <trkpt lat="45.2611" lon="0.31206">
        <ele>57</ele>
        <time>2015-09-15T14:14:40Z</time>
      </trkpt>
      <trkpt lat="45.26117" lon="0.31212">
        <ele>56</ele>
        <time>2015-09-15T14:14:45Z</time>
      </trkpt>
      <trkpt lat="45.26124" lon="0.31218">
        <ele>54</ele>
        <time>2015-09-15T14:14:52Z</time>
      </trkpt>
      <trkpt lat="45.26131" lon="0.31225">
        <ele>55</ele>
        <time>2015-09-15T14:15:00Z</time>
      </trkpt>
      <trkpt lat="45.26137" lon="0.31235">
        <ele>55</ele>
        <time>2015-09-15T14:15:07Z</time>
      </trkpt>
      <trkpt lat="45.26143" lon="0.31242">
        <ele>56</ele>
        <time>2015-09-15T14:15:14Z</time>
      </trkpt>
      <trkpt lat="45.26147" lon="0.31252">
        <ele>56</ele>
        <time>2015-09-15T14:15:20Z</time>
      </trkpt>
      <trkpt lat="45.26152" lon="0.3126">
        <ele>55</ele>
        <time>2015-09-15T14:15:26Z</time>
      </trkpt>
      <trkpt lat="45.26152" lon="0.31272">
        <ele>57</ele>
        <time>2015-09-15T14:15:34Z</time>
      </trkpt>
      <trkpt lat="45.26147" lon="0.31282">
        <ele>59</ele>
        <time>2015-09-15T14:15:43Z</time>
      </trkpt>
      <trkpt lat="45.26139" lon="0.31287">
        <ele>65</ele>
        <time>2015-09-15T14:15:53Z</time>
      </trkpt>
      <trkpt lat="45.26133" lon="0.31295">
        <ele>67</ele>
        <time>2015-09-15T14:16:03Z</time>
      </trkpt>
      <trkpt lat="45.2613" lon="0.31303">
        <ele>67</ele>
        <time>2015-09-15T14:16:10Z</time>
      </trkpt>
      <trkpt lat="45.26121" lon="0.31312">
        <ele>64</ele>
        <time>2015-09-15T14:16:15Z</time>
      </trkpt>
      <trkpt lat="45.26122" lon="0.31322">
        <ele>63</ele>
        <time>2015-09-15T14:16:21Z</time>
      </trkpt>
      <trkpt lat="45.2612" lon="0.31333">
        <ele>62</ele>
        <time>2015-09-15T14:16:26Z</time>
      </trkpt>
      <trkpt lat="45.26115" lon="0.31343">
        <ele>60</ele>
        <time>2015-09-15T14:16:32Z</time>
      </trkpt>
      <trkpt lat="45.26112" lon="0.31354">
        <ele>59</ele>
        <time>2015-09-15T14:16:39Z</time>
      </trkpt>
      <trkpt lat="45.26106" lon="0.31362">
        <ele>61</ele>
        <time>2015-09-15T14:16:46Z</time>
      </trkpt>
      <trkpt lat="45.26098" lon="0.31366">
        <ele>65</ele>
        <time>2015-09-15T14:16:51Z</time>
      </trkpt>
      <trkpt lat="45.26091" lon="0.31372">
        <ele>66</ele>
        <time>2015-09-15T14:16:57Z</time>
      </trkpt>
      <trkpt lat="45.26086" lon="0.31381">
        <ele>64</ele>
        <time>2015-09-15T14:17:03Z</time>
      </trkpt>
      <trkpt lat="45.26079" lon="0.31388">
        <ele>66</ele>
        <time>2015-09-15T14:17:13Z</time>
      </trkpt>
      <trkpt lat="45.26072" lon="0.31396">
        <ele>66</ele>
        <time>2015-09-15T14:17:19Z</time>
      </trkpt>
      <trkpt lat="45.26068" lon="0.31405">
        <ele>61</ele>
        <time>2015-09-15T14:17:28Z</time>
      </trkpt>
      <trkpt lat="45.2606" lon="0.3141">
        <ele>60</ele>
        <time>2015-09-15T14:17:34Z</time>
      </trkpt>
      <trkpt lat="45.26055" lon="0.31418">
        <ele>58</ele>
        <time>2015-09-15T14:17:43Z</time>
      </trkpt>
      <trkpt lat="45.26048" lon="0.31427">
        <ele>56</ele>
        <time>2015-09-15T14:17:51Z</time>
      </trkpt>
      <trkpt lat="45.2604" lon="0.31431">
        <ele>57</ele>
        <time>2015-09-15T14:17:56Z</time>
      </trkpt>
      <trkpt lat="45.26033" lon="0.31438">
        <ele>59</ele>
        <time>2015-09-15T14:18:03Z</time>
      </trkpt>
      <trkpt lat="45.26027" lon="0.31447">
        <ele>63</ele>
        <time>2015-09-15T14:18:09Z</time>
      </trkpt>
      <trkpt lat="45.26023" lon="0.31455">
        <ele>64</ele>
        <time>2015-09-15T14:18:19Z</time>
      </trkpt>
      <trkpt lat="45.26016" lon="0.3146">
        <ele>66</ele>
        <time>2015-09-15T14:18:26Z</time>
      </trkpt>
      <trkpt lat="45.26009" lon="0.31467">
        <ele>64</ele>
        <time>2015-09-15T14:18:32Z</time>
      </trkpt>
      <trkpt lat="45.26" lon="0.31474">
        <ele>62</ele>
        <time>2015-09-15T14:18:37Z</time>
      </trkpt>
      <trkpt lat="45.25996" lon="0.31482">
        <ele>63</ele>
        <time>2015-09-15T14:18:45Z</time>
      </trkpt>
      <trkpt lat="45.25989" lon="0.31486">
        <ele>64</ele>
        <time>2015-09-15T14:18:51Z</time>
      </trkpt>
      <trkpt lat="45.25982" lon="0.31493">
        <ele>65</ele>
        <time>2015-09-15T14:19:00Z</time>
      </trkpt>
      <trkpt lat="45.25974" lon="0.31497">
        <ele>64</ele>
        <time>2015-09-15T14:19:08Z</time>
      </trkpt>
      <trkpt lat="45.25968" lon="0.31505">
        <ele>65</ele>
        <time>2015-09-15T14:19:14Z</time>
      </trkpt>
      <trkpt lat="45.25961" lon="0.31512">
        <ele>66</ele>
        <time>2015-09-15T14:19:21Z</time>
      </trkpt>
      <trkpt lat="45.25955" lon="0.31521">
        <ele>65</ele>
        <time>2015-09-15T14:19:27Z</time>
      </trkpt>
      <trkpt lat="45.25947" lon="0.31526">
        <ele>62</ele>
        <time>2015-09-15T14:19:33Z</time>
      </trkpt>
      <trkpt lat="45.2594" lon="0.31531">
        <ele>60</ele>
        <time>2015-09-15T14:19:40Z</time>
      </trkpt>
      <trkpt lat="45.25934" lon="0.31539">
        <ele>59</ele>
        <time>2015-09-15T14:19:47Z</time>
      </trkpt>
      <trkpt lat="45.25928" lon="0.31547">
        <ele>63</ele>
        <time>2015-09-15T14:19:54Z</time>
      </trkpt>
      <trkpt lat="45.25921" lon="0.31552">
        <ele>60</ele>
        <time>2015-09-15T14:19:59Z</time>
      </trkpt>
      <trkpt lat="45.25914" lon="0.31557">
        <ele>59</ele>
        <time>2015-09-15T14:20:04Z</time>
      </trkpt>
      <trkpt lat="45.25907" lon="0.31563">
        <ele>62</ele>
        <time>2015-09-15T14:20:12Z</time>
      </trkpt>
      <trkpt lat="45.259" lon="0.31571">
        <ele>61</ele>
        <time>2015-09-15T14:20:19Z</time>
      </trkpt>
      <trkpt lat="45.25893" lon="0.31577">
        <ele>64</ele>
        <time>2015-09-15T14:20:27Z</time>
      </trkpt>
      <trkpt lat="45.25887" lon="0.31581">
        <ele>64</ele>
        <time>2015-09-15T14:20:33Z</time>
      </trkpt>
      <trkpt lat="45.25878" lon="0.31585">
        <ele>64</ele>
        <time>2015-09-15T14:20:39Z</time>
      </trkpt>
      <trkpt lat="45.2587" lon="0.3159">
        <ele>64</ele>
        <time>2015-09-15T14:20:46Z</time>
      </trkpt>
      <trkpt lat="45.25862" lon="0.31595">
        <ele>63</ele>
        <time>2015-09-15T14:20:51Z</time>
      </trkpt>
      <trkpt lat="45.25854" lon="0.316">
        <ele>62</ele>
        <time>2015-09-15T14:20:58Z</time>
      </trkpt>
      <trkpt lat="45.25847" lon="0.31605">
        <ele>61</ele>
        <time>2015-09-15T14:21:05Z</time>
      </trkpt>
      <trkpt lat="45.2584" lon="0.31611">
        <ele>63</ele>
        <time>2015-09-15T14:21:11Z</time>
      </trkpt>
      <trkpt lat="45.25834" lon="0.31619">
        <ele>59</ele>
        <time>2015-09-15T14:21:17Z</time>
      </trkpt>
      <trkpt lat="45.25826" lon="0.31624">
        <ele>58</ele>
        <time>2015-09-15T14:21:23Z</time>
      </trkpt>
      <trkpt lat="45.2582" lon="0.31632">
        <ele>56</ele>
        <time>2015-09-15T14:21:28Z</time>
      </trkpt>
      <trkpt lat="45.25812" lon="0.31636">
        <ele>56</ele>
        <time>2015-09-15T14:21:35Z</time>
      </trkpt>
      <trkpt lat="45.25806" lon="0.31643">
        <ele>58</ele>
        <time>2015-09-15T14:21:43Z</time>
      </trkpt>
      <trkpt lat="45.258" lon="0.31651">
        <ele>60</ele>
        <time>2015-09-15T14:21:48Z</time>
      </trkpt>
      <trkpt lat="45.25797" lon="0.31662">
        <ele>61</ele>
        <time>2015-09-15T14:21:54Z</time>
      </trkpt>
      <trkpt lat="45.25793" lon="0.31671">
        <ele>64</ele>
        <time>2015-09-15T14:22:02Z</time>
      </trkpt>
      <trkpt lat="45.25786" lon="0.31677">
        <ele>65</ele>
        <time>2015-09-15T14:22:11Z</time>
      </trkpt>
      <trkpt lat="45.2578" lon="0.31679">
        <ele>64</ele>
        <time>2015-09-15T14:22:16Z</time>
      </trkpt>
      <trkpt lat="45.25772" lon="0.31686">
        <ele>61</ele>
        <time>2015-09-15T14:22:21Z</time>
      </trkpt>
      <trkpt lat="45.25765" lon="0.3169">
        <ele>60</ele>
        <time>2015-09-15T14:22:27Z</time>
      </trkpt>
      <trkpt lat="45.25757" lon="0.31695">
        <ele>58</ele>
        <time>2015-09-15T14:22:33Z</time>
      </trkpt>
      <trkpt lat="45.2575" lon="0.317">
        <ele>57</ele>
        <time>2015-09-15T14:22:40Z</time>
      </trkpt>
      <trkpt lat="45.25741" lon="0.31705">
        <ele>57</ele>
        <time>2015-09-15T14:22:47Z</time>
      </trkpt>
      <trkpt lat="45.25733" lon="0.3171">
        <ele>57</ele>
        <time>2015-09-15T14:22:53Z</time>
      </trkpt>
      <trkpt lat="45.25726" lon="0.31713">
        <ele>56</ele>
        <time>2015-09-15T14:22:58Z</time>
      </trkpt>
      <trkpt lat="45.25718" lon="0.31718">
        <ele>56</ele>
        <time>2015-09-15T14:23:05Z</time>
      </trkpt>
      <trkpt lat="45.25711" lon="0.31723">
        <ele>55</ele>
        <time>2015-09-15T14:23:11Z</time>
      </trkpt>
      <trkpt lat="45.25702" lon="0.31727">
        <ele>55</ele>
        <time>2015-09-15T14:23:17Z</time>
      </trkpt>
      <trkpt lat="45.25695" lon="0.31731">
        <ele>55</ele>
        <time>2015-09-15T14:23:24Z</time>
      </trkpt>
      <trkpt lat="45.25688" lon="0.31735">
        <ele>55</ele>
        <time>2015-09-15T14:23:30Z</time>
      </trkpt>
      <trkpt lat="45.2568" lon="0.3174">
        <ele>55</ele>
        <time>2015-09-15T14:23:36Z</time>
      </trkpt>
      <trkpt lat="45.25672" lon="0.31744">
        <ele>55</ele>
        <time>2015-09-15T14:23:43Z</time>
      </trkpt>
      <trkpt lat="45.25664" lon="0.31751">
        <ele>56</ele>
        <time>2015-09-15T14:23:50Z</time>
      </trkpt>
      <trkpt lat="45.25656" lon="0.31755">
        <ele>57</ele>
        <time>2015-09-15T14:23:56Z</time>
      </trkpt>
      <trkpt lat="45.25648" lon="0.3176">
        <ele>57</ele>
        <time>2015-09-15T14:24:03Z</time>
      </trkpt>
      <trkpt lat="45.25641" lon="0.31765">
        <ele>59</ele>
        <time>2015-09-15T14:24:11Z</time>
      </trkpt>
      <trkpt lat="45.25633" lon="0.3177">
        <ele>58</ele>
        <time>2015-09-15T14:24:17Z</time>
      </trkpt>
      <trkpt lat="45.25625" lon="0.31775">
        <ele>58</ele>
        <time>2015-09-15T14:24:24Z</time>
      </trkpt>
      <trkpt lat="45.25619" lon="0.31783">
        <ele>57</ele>
        <time>2015-09-15T14:26:43Z</time>
      </trkpt>
      <trkpt lat="45.25611" lon="0.31788">
        <ele>57</ele>
        <time>2015-09-15T14:26:54Z</time>
      </trkpt>
      <trkpt lat="45.25605" lon="0.31792">
        <ele>56</ele>
        <time>2015-09-15T14:27:01Z</time>
      </trkpt>
      <trkpt lat="45.25597" lon="0.31794">
        <ele>57</ele>
        <time>2015-09-15T14:27:07Z</time>
      </trkpt>
      <trkpt lat="45.25589" lon="0.31798">
        <ele>58</ele>
        <time>2015-09-15T14:27:14Z</time>
      </trkpt>
      <trkpt lat="45.25582" lon="0.31805">
        <ele>60</ele>
        <time>2015-09-15T14:27:22Z</time>
      </trkpt>
      <trkpt lat="45.25575" lon="0.31811">
        <ele>61</ele>
        <time>2015-09-15T14:27:29Z</time>
      </trkpt>
      <trkpt lat="45.25568" lon="0.31818">
        <ele>62</ele>
        <time>2015-09-15T14:27:38Z</time>
      </trkpt>
      <trkpt lat="45.25562" lon="0.31826">
        <ele>61</ele>
        <time>2015-09-15T14:27:46Z</time>
      </trkpt>
      <trkpt lat="45.25557" lon="0.31837">
        <ele>61</ele>
        <time>2015-09-15T14:27:55Z</time>
      </trkpt>
      <trkpt lat="45.25553" lon="0.31847">
        <ele>63</ele>
        <time>2015-09-15T14:28:03Z</time>
      </trkpt>
      <trkpt lat="45.25548" lon="0.31858">
        <ele>63</ele>
        <time>2015-09-15T14:28:11Z</time>
      </trkpt>
      <trkpt lat="45.25542" lon="0.31866">
        <ele>65</ele>
        <time>2015-09-15T14:28:20Z</time>
      </trkpt>
      <trkpt lat="45.25535" lon="0.31871">
        <ele>64</ele>
        <time>2015-09-15T14:28:28Z</time>
      </trkpt>
      <trkpt lat="45.25527" lon="0.31875">
        <ele>65</ele>
        <time>2015-09-15T14:28:37Z</time>
      </trkpt>
      <trkpt lat="45.25519" lon="0.31878">
        <ele>68</ele>
        <time>2015-09-15T14:28:47Z</time>
      </trkpt>
      <trkpt lat="45.25511" lon="0.31882">
        <ele>70</ele>
        <time>2015-09-15T14:28:58Z</time>
      </trkpt>
      <trkpt lat="45.25503" lon="0.31885">
        <ele>71</ele>
        <time>2015-09-15T14:29:05Z</time>
      </trkpt>
      <trkpt lat="45.25496" lon="0.31889">
        <ele>71</ele>
        <time>2015-09-15T14:29:12Z</time>
      </trkpt>
      <trkpt lat="45.25487" lon="0.31893">
        <ele>71</ele>
        <time>2015-09-15T14:29:20Z</time>
      </trkpt>
      <trkpt lat="45.25479" lon="0.31894">
        <ele>71</ele>
        <time>2015-09-15T14:29:27Z</time>
      </trkpt>
      <trkpt lat="45.25471" lon="0.31893">
        <ele>72</ele>
        <time>2015-09-15T14:29:35Z</time>
      </trkpt>
      <trkpt lat="45.25463" lon="0.3189">
        <ele>72</ele>
        <time>2015-09-15T14:29:44Z</time>
      </trkpt>
      <trkpt lat="45.25454" lon="0.31886">
        <ele>71</ele>
        <time>2015-09-15T14:29:52Z</time>
      </trkpt>
      <trkpt lat="45.25446" lon="0.31884">
        <ele>72</ele>
        <time>2015-09-15T14:30:00Z</time>
      </trkpt>
      <trkpt lat="45.25439" lon="0.3188">
        <ele>73</ele>
        <time>2015-09-15T14:30:07Z</time>
      </trkpt>
      <trkpt lat="45.25432" lon="0.31877">
        <ele>74</ele>
        <time>2015-09-15T14:30:15Z</time>
      </trkpt>
      <trkpt lat="45.25424" lon="0.31873">
        <ele>74</ele>
        <time>2015-09-15T14:30:21Z</time>
      </trkpt>
      <trkpt lat="45.25415" lon="0.3187">
        <ele>73</ele>
        <time>2015-09-15T14:30:27Z</time>
      </trkpt>
      <trkpt lat="45.25407" lon="0.31868">
        <ele>73</ele>
        <time>2015-09-15T14:30:34Z</time>
      </trkpt>
      <trkpt lat="45.25399" lon="0.31865">
        <ele>73</ele>
        <time>2015-09-15T14:30:40Z</time>
      </trkpt>
      <trkpt lat="45.2539" lon="0.31863">
        <ele>72</ele>
        <time>2015-09-15T14:30:47Z</time>
      </trkpt>
      <trkpt lat="45.25382" lon="0.31863">
        <ele>72</ele>
        <time>2015-09-15T14:30:55Z</time>
      </trkpt>
      <trkpt lat="45.25373" lon="0.31865">
        <ele>73</ele>
        <time>2015-09-15T14:31:05Z</time>
      </trkpt>
      <trkpt lat="45.25365" lon="0.3187">
        <ele>75</ele>
        <time>2015-09-15T14:31:16Z</time>
      </trkpt>
      <trkpt lat="45.25364" lon="0.31882">
        <ele>74</ele>
        <time>2015-09-15T14:31:33Z</time>
      </trkpt>
      <trkpt lat="45.25361" lon="0.31894">
        <ele>74</ele>
        <time>2015-09-15T14:31:49Z</time>
      </trkpt>
      <trkpt lat="45.25356" lon="0.31903">
        <ele>76</ele>
        <time>2015-09-15T14:31:57Z</time>
      </trkpt>
      <trkpt lat="45.25351" lon="0.31913">
        <ele>77</ele>
        <time>2015-09-15T14:32:05Z</time>
      </trkpt>
      <trkpt lat="45.25348" lon="0.31924">
        <ele>78</ele>
        <time>2015-09-15T14:32:12Z</time>
      </trkpt>
      <trkpt lat="45.25343" lon="0.31933">
        <ele>78</ele>
        <time>2015-09-15T14:32:18Z</time>
      </trkpt>
      <trkpt lat="45.25339" lon="0.31944">
        <ele>77</ele>
        <time>2015-09-15T14:32:25Z</time>
      </trkpt>
      <trkpt lat="45.25336" lon="0.31955">
        <ele>77</ele>
        <time>2015-09-15T14:32:33Z</time>
      </trkpt>
      <trkpt lat="45.25331" lon="0.31965">
        <ele>79</ele>
        <time>2015-09-15T14:32:41Z</time>
      </trkpt>
      <trkpt lat="45.25327" lon="0.31976">
        <ele>80</ele>
        <time>2015-09-15T14:32:51Z</time>
      </trkpt>
      <trkpt lat="45.25323" lon="0.31987">
        <ele>80</ele>
        <time>2015-09-15T14:33:00Z</time>
      </trkpt>
      <trkpt lat="45.2532" lon="0.31998">
        <ele>80</ele>
        <time>2015-09-15T14:33:08Z</time>
      </trkpt>
      <trkpt lat="45.25317" lon="0.32009">
        <ele>81</ele>
        <time>2015-09-15T14:33:16Z</time>
      </trkpt>
      <trkpt lat="45.25315" lon="0.32021">
        <ele>83</ele>
        <time>2015-09-15T14:33:24Z</time>
      </trkpt>
      <trkpt lat="45.25317" lon="0.32032">
        <ele>83</ele>
        <time>2015-09-15T14:33:35Z</time>
      </trkpt>
      <trkpt lat="45.25322" lon="0.32041">
        <ele>84</ele>
        <time>2015-09-15T14:33:42Z</time>
      </trkpt>
      <trkpt lat="45.25327" lon="0.32052">
        <ele>84</ele>
        <time>2015-09-15T14:33:50Z</time>
      </trkpt>
      <trkpt lat="45.25329" lon="0.32063">
        <ele>84</ele>
        <time>2015-09-15T14:33:57Z</time>
      </trkpt>
      <trkpt lat="45.25332" lon="0.32074">
        <ele>85</ele>
        <time>2015-09-15T14:34:03Z</time>
      </trkpt>
      <trkpt lat="45.25334" lon="0.32086">
        <ele>86</ele>
        <time>2015-09-15T14:34:11Z</time>
      </trkpt>
      <trkpt lat="45.25335" lon="0.32097">
        <ele>86</ele>
        <time>2015-09-15T14:34:18Z</time>
      </trkpt>
      <trkpt lat="45.25334" lon="0.32108">
        <ele>85</ele>
        <time>2015-09-15T14:34:26Z</time>
      </trkpt>
      <trkpt lat="45.25331" lon="0.3212">
        <ele>90</ele>
        <time>2015-09-15T14:34:36Z</time>
      </trkpt>
      <trkpt lat="45.25323" lon="0.32125">
        <ele>90</ele>
        <time>2015-09-15T14:34:43Z</time>
      </trkpt>
      <trkpt lat="45.25315" lon="0.32127">
        <ele>89</ele>
        <time>2015-09-15T14:34:50Z</time>
      </trkpt>
      <trkpt lat="45.25307" lon="0.32127">
        <ele>90</ele>
        <time>2015-09-15T14:34:57Z</time>
      </trkpt>
      <trkpt lat="45.25299" lon="0.32129">
        <ele>88</ele>
        <time>2015-09-15T14:35:04Z</time>
      </trkpt>
      <trkpt lat="45.2529" lon="0.32128">
        <ele>89</ele>
        <time>2015-09-15T14:35:11Z</time>
      </trkpt>
      <trkpt lat="45.25283" lon="0.32121">
        <ele>89</ele>
        <time>2015-09-15T14:35:20Z</time>
      </trkpt>
      <trkpt lat="45.2528" lon="0.3211">
        <ele>88</ele>
        <time>2015-09-15T14:35:29Z</time>
      </trkpt>
      <trkpt lat="45.25273" lon="0.32103">
        <ele>89</ele>
        <time>2015-09-15T14:35:40Z</time>
      </trkpt>
      <trkpt lat="45.25265" lon="0.321">
        <ele>90</ele>
        <time>2015-09-15T14:35:49Z</time>
      </trkpt>
      <trkpt lat="45.25257" lon="0.32097">
        <ele>89</ele>
        <time>2015-09-15T14:35:56Z</time>
      </trkpt>
      <trkpt lat="45.25251" lon="0.32106">
        <ele>90</ele>
        <time>2015-09-15T14:36:03Z</time>
      </trkpt>
      <trkpt lat="45.25247" lon="0.32118">
        <ele>88</ele>
        <time>2015-09-15T14:36:10Z</time>
      </trkpt>
      <trkpt lat="45.25241" lon="0.32126">
        <ele>90</ele>
        <time>2015-09-15T14:36:18Z</time>
      </trkpt>
      <trkpt lat="45.25235" lon="0.32132">
        <ele>91</ele>
        <time>2015-09-15T14:36:26Z</time>
      </trkpt>
      <trkpt lat="45.25228" lon="0.3214">
        <ele>92</ele>
        <time>2015-09-15T14:36:33Z</time>
      </trkpt>
      <trkpt lat="45.25222" lon="0.32148">
        <ele>92</ele>
        <time>2015-09-15T14:36:40Z</time>
      </trkpt>
      <trkpt lat="45.25216" lon="0.32156">
        <ele>93</ele>
        <time>2015-09-15T14:36:47Z</time>
      </trkpt>
      <trkpt lat="45.25211" lon="0.32166">
        <ele>92</ele>
        <time>2015-09-15T14:36:54Z</time>
      </trkpt>
      <trkpt lat="45.25206" lon="0.32175">
        <ele>94</ele>
        <time>2015-09-15T14:37:03Z</time>
      </trkpt>
      <trkpt lat="45.25201" lon="0.32186">
        <ele>94</ele>
        <time>2015-09-15T14:37:10Z</time>
      </trkpt>
      <trkpt lat="45.25197" lon="0.32195">
        <ele>93</ele>
        <time>2015-09-15T14:37:17Z</time>
      </trkpt>
      <trkpt lat="45.25193" lon="0.32207">
        <ele>93</ele>
        <time>2015-09-15T14:37:25Z</time>
      </trkpt>
      <trkpt lat="45.25191" lon="0.32219">
        <ele>92</ele>
        <time>2015-09-15T14:37:35Z</time>
      </trkpt>
      <trkpt lat="45.25194" lon="0.32229">
        <ele>90</ele>
        <time>2015-09-15T14:38:00Z</time>
      </trkpt>
      <trkpt lat="45.25194" lon="0.32229">
        <ele>90</ele>
        <time>2015-09-15T14:38:01Z</time>
      </trkpt>
    </trkseg>
  </trk>
</gpx>